Data for 03/25/2008

Time Sea-Level Adjusted Pressure Absolute Pressure Temperature Relative Humidity Dew Point Precipitation   
(mb) (inHg) (mb) (inHg) (C) (F) (%) (C) (F) (mm) (in)
00:01 1019 30.09 848 25.04 -4.3 24.2 70 -9.1 15.7 0
00:02 1018 30.06 848 25.04 -4.3 24.3 69 -9.1 15.7 0
00:03 1018 30.06 848 25.04 -4.3 24.3 70 -9 15.7 0
00:04 1018 30.06 848 25.04 -4.3 24.2 70 -9 15.7 0
00:05 1018 30.06 848 25.04 -4.3 24.2 69 -9.1 15.6 0
00:06 1018 30.06 848 25.04 -4.3 24.2 70 -9 15.7 0
00:07 1018 30.06 848 25.04 -4.4 24.1 70 -9 15.8 0
00:08 1018 30.06 848 25.04 -4.4 24 70 -9.1 15.5 0
00:09 1018 30.06 848 25.04 -4.4 24.1 70 -9.2 15.5 0
00:10 1018 30.06 848 25.04 -4.4 24.1 69 -9.2 15.4 0
00:11 1018 30.06 848 25.04 -4.3 24.2 69 -9.3 15.3 0
00:12 1018 30.06 848 25.04 -4.3 24.3 68 -9.3 15.3 0
00:13 1018 30.06 848 25.04 -4.3 24.2 69 -9.2 15.4 0
00:14 1018 30.06 848 25.04 -4.3 24.3 69 -9.2 15.4 0
00:15 1018 30.06 848 25.04 -4.3 24.3 69 -9.2 15.4 0
00:16 1018 30.06 848 25.04 -4.3 24.2 68 -9.4 15.1 0
00:17 1018 30.06 848 25.04 -4.4 24.1 68 -9.4 15.1 0
00:18 1018 30.06 848 25.04 -4.3 24.2 68 -9.4 15 0
00:19 1018 30.06 848 25.04 -4.2 24.4 67 -9.5 14.9 0
00:20 1018 30.06 848 25.04 -4.1 24.6 66 -9.5 14.9 0
00:21 1018 30.06 848 25.04 -4.1 24.6 66 -9.5 14.8 0
00:22 1018 30.06 848 25.04 -4.1 24.7 66 -9.4 15 0
00:23 1018 30.06 848 25.04 -4.1 24.6 67 -9.4 15 0
00:24 1018 30.06 848 25.04 -4.2 24.5 67 -9.4 15.1 0
00:25 1018 30.06 848 25.04 -4.2 24.4 68 -9.4 15.1 0
00:26 1019 30.09 848 25.04 -4.2 24.4 68 -9.3 15.3 0
00:27 1019 30.09 848 25.04 -4.3 24.3 69 -9.2 15.4 0
00:28 1019 30.09 848 25.04 -4.3 24.3 69 -9.1 15.6 0
00:29 1018 30.06 848 25.04 -4.3 24.2 69 -9.1 15.6 0
00:30 1019 30.09 848 25.04 -4.4 24.1 70 -9.1 15.6 0
00:31 1019 30.09 848 25.04 -4.4 24 70 -9.1 15.6 0
00:32 1019 30.09 848 25.04 -4.5 23.9 69 -9.3 15.3 0
00:33 1019 30.09 848 25.04 -4.4 24 69 -9.3 15.3 0
00:34 1019 30.09 848 25.04 -4.4 24.1 69 -9.3 15.2 0
00:35 1019 30.09 848 25.04 -4.3 24.2 68 -9.4 15.1 0
00:36 1018 30.06 848 25.04 -4.3 24.2 68 -9.4 15.2 0
00:37 1018 30.06 848 25.04 -4.3 24.3 69 -9.2 15.4 0
00:38 1019 30.09 848 25.04 -4.3 24.2 69 -9.3 15.3 0
00:39 1019 30.09 848 25.04 -4.4 24.1 69 -9.2 15.4 0
00:40 1019 30.09 848 25.04 -4.5 24 71 -9 15.8 0
00:41 1019 30.09 848 25.04 -4.6 23.7 72 -8.9 16 0
00:42 1019 30.09 848 25.04 -4.7 23.5 73 -8.9 16 0
00:43 1019 30.09 848 25.04 -4.8 23.4 73 -8.9 15.9 0
00:44 1019 30.09 848 25.04 -4.7 23.5 72 -9 15.9 0
00:45 1019 30.09 848 25.04 -4.7 23.6 72 -9 15.8 0
00:46 1019 30.09 848 25.04 -4.6 23.6 72 -9 15.8 0
00:47 1019 30.09 848 25.04 -4.5 23.9 71 -9 15.9 0
00:48 1019 30.09 848 25.04 -4.4 24 71 -8.9 16.1 0
00:49 1019 30.09 848 25.04 -4.4 24.1 71 -8.8 16.1 0
00:50 1019 30.09 848 25.04 -4.4 24.2 71 -8.9 16.1 0
00:51 1019 30.09 848 25.04 -4.4 24.2 71 -8.9 16.1 0
00:52 1019 30.09 848 25.04 -4.4 24.2 72 -8.7 16.4 0
00:53 1019 30.09 848 25.04 -4.4 24 73 -8.6 16.5 0
00:54 1019 30.09 848 25.04 -4.5 23.8 72 -8.9 15.9 0
00:55 1019 30.09 848 25.04 -4.4 24.1 70 -9.1 15.6 0
00:56 1019 30.09 848 25.04 -4.3 24.3 68 -9.4 15.1 0
00:57 1019 30.09 848 25.04 -4.2 24.5 68 -9.3 15.3 0
00:58 1019 30.09 848 25.04 -4 24.8 63 -10.1 13.9 0
00:59 1019 30.09 848 25.04 -3.8 25.2 65 -9.5 14.8 0
01:00 1019 30.09 848 25.04 -3.6 25.4 63 -9.7 14.5 0
01:01 1019 30.09 848 25.04 -3.5 25.7 65 -9.3 15.3 0
01:02 1019 30.09 848 25.04 -3.5 25.7 63 -9.5 14.8 0
01:03 1019 30.09 848 25.04 -3.4 25.9 61 -9.8 14.3 0
01:04 1019 30.09 848 25.04 -3.3 26 65 -9.1 15.7 0
01:05 1019 30.09 848 25.04 -3.4 26 61 -9.7 14.5 0
01:06 1019 30.09 848 25.04 -3.3 26 59 -10.2 13.7 0
01:07 1019 30.09 848 25.04 -3.2 26.3 59 -10.1 13.7 0
01:08 1019 30.09 848 25.04 -3 26.5 62 -9.2 15.4 0
01:09 1019 30.09 848 25.04 -3.1 26.4 59 -10 14 0
01:10 1019 30.09 848 25.04 -3.1 26.4 55 -10.9 12.4 0
01:11 1019 30.09 848 25.04 -3 26.6 54 -11.1 12 0
01:12 1019 30.09 848 25.04 -3 26.7 54 -11 12.2 0
01:13 1018 30.06 848 25.04 -2.9 26.8 58 -10.1 13.8 0
01:14 1019 30.09 848 25.04 -2.9 26.7 53 -11.2 11.8 0
01:15 1018 30.06 848 25.04 -3 26.7 54 -11 12.2 0
01:16 1018 30.06 848 25.04 -2.9 26.7 54 -11.1 12.1 0
01:17 1018 30.06 848 25.04 -2.9 26.8 56 -10.5 13 0
01:18 1019 30.09 848 25.04 -2.9 26.7 56 -10.6 13 0
01:19 1019 30.09 848 25.04 -3 26.7 56 -10.5 13 0
01:20 1019 30.09 848 25.04 -3.1 26.5 56 -10.7 12.8 0
01:21 1019 30.09 848 25.04 -3.1 26.4 56 -10.8 12.6 0
01:22 1019 30.09 848 25.04 -3.2 26.3 55 -11 12.1 0
01:23 1019 30.09 848 25.04 -3.2 26.3 56 -10.8 12.6 0
01:24 1019 30.09 848 25.04 -3.1 26.4 54 -11.1 12 0
01:25 1019 30.09 848 25.04 -3.1 26.4 54 -11.1 12.1 0
01:26 1019 30.09 848 25.04 -3.1 26.4 54 -11.1 12.1 0
01:27 1019 30.09 848 25.04 -3.1 26.5 54 -11.2 11.8 0
01:28 1019 30.09 848 25.04 -3.1 26.5 56 -10.7 12.8 0
01:29 1019 30.09 848 25.04 -3.1 26.3 57 -10.6 13 0
01:30 1019 30.09 848 25.04 -3.2 26.3 58 -10.3 13.4 0
01:31 1019 30.09 848 25.04 -3.2 26.2 53 -11.5 11.4 0
01:32 1019 30.09 848 25.04 -3.2 26.2 53 -11.6 11.2 0
01:33 1019 30.09 848 25.04 -3.2 26.3 56 -10.9 12.4 0
01:34 1019 30.09 848 25.04 -3.1 26.4 53 -11.3 11.6 0
01:35 1019 30.09 848 25.04 -3.2 26.3 56 -10.8 12.5 0
01:36 1019 30.09 848 25.04 -3.2 26.3 53 -11.4 11.5 0
01:37 1019 30.09 848 25.04 -3.2 26.2 56 -10.9 12.4 0
01:38 1019 30.09 848 25.04 -3.2 26.2 55 -10.9 12.3 0
01:39 1019 30.09 848 25.04 -3.2 26.2 58 -10.5 13.1 0
01:40 1019 30.09 848 25.04 -3.3 26 58 -10.4 13.3 0
01:41 1019 30.09 848 25.04 -3.4 25.9 57 -10.7 12.8 0
01:42 1019 30.09 848 25.04 -3.5 25.8 58 -10.6 12.9 0
01:43 1019 30.09 848 25.04 -3.5 25.7 57 -10.8 12.6 0
01:44 1019 30.09 848 25.04 -3.5 25.7 54 -11.6 11.2 0
01:45 1019 30.09 848 25.04 -3.5 25.8 56 -10.9 12.3 0
01:46 1019 30.09 848 25.04 -3.4 25.8 58 -10.6 12.9 0
01:47 1019 30.09 848 25.04 -3.5 25.7 60 -10.1 13.8 0
01:48 1019 30.09 848 25.04 -3.6 25.5 59 -10.4 13.3 0
01:49 1019 30.09 848 25.04 -3.7 25.4 64 -9.6 14.7 0
01:50 1019 30.09 848 25.04 -3.8 25.2 61 -10.2 13.6 0
01:51 1019 30.09 848 25.04 -3.8 25.1 63 -9.9 14.1 0
01:52 1019 30.09 848 25.04 -4 24.8 63 -10 14 0
01:53 1019 30.09 848 25.04 -4.1 24.6 64 -10 14.1 0
01:54 1019 30.09 848 25.04 -4.3 24.3 64 -10 13.9 0
01:55 1019 30.09 848 25.04 -4.3 24.2 64 -10.2 13.7 0
01:56 1019 30.09 848 25.04 -4.4 24.1 62 -10.7 12.8 0
01:57 1019 30.09 848 25.04 -4.3 24.2 63 -10.4 13.3 0
01:58 1019 30.09 848 25.04 -4.3 24.2 62 -10.5 13.1 0
01:59 1019 30.09 848 25.04 -4.3 24.3 63 -10.4 13.4 0
02:00 1019 30.09 848 25.04 -4.3 24.2 63 -10.3 13.5 0
02:01 1019 30.09 848 25.04 -4.4 24.1 64 -10.2 13.7 0
02:02 1019 30.09 848 25.04 -4.5 23.9 64 -10.4 13.3 0
02:03 1019 30.09 848 25.04 -4.5 24 59 -11.3 11.7 0
02:04 1019 30.09 848 25.04 -4.3 24.2 57 -11.7 10.9 0
02:05 1019 30.09 848 25.04 -4.1 24.6 57 -11.4 11.5 0
02:06 1019 30.09 848 25.04 -4 24.8 56 -11.6 11.1 0
02:07 1019 30.09 848 25.04 -3.9 25 55 -11.8 10.8 0
02:08 1019 30.09 848 25.04 -3.8 25.1 54 -11.8 10.8 0
02:09 1019 30.09 848 25.04 -3.8 25.2 56 -11.2 11.8 0
02:10 1019 30.09 848 25.04 -3.9 25 57 -11.3 11.7 0
02:11 1019 30.09 848 25.04 -3.9 24.9 57 -11.3 11.7 0
02:12 1019 30.09 848 25.04 -3.9 25 57 -11.2 11.8 0
02:13 1019 30.09 848 25.04 -3.9 25 57 -11.3 11.7 0
02:14 1019 30.09 848 25.04 -3.9 24.9 59 -10.9 12.4 0
02:15 1019 30.09 848 25.04 -3.9 24.9 52 -12.5 9.5 0
02:16 1019 30.09 848 25.04 -3.7 25.3 51 -12.5 9.4 0
02:17 1019 30.09 848 25.04 -3.6 25.6 52 -12.1 10.3 0
02:18 1019 30.09 848 25.04 -3.5 25.7 52 -12.1 10.2 0
02:19 1019 30.09 848 25.04 -3.5 25.7 52 -11.9 10.6 0
02:20 1019 30.09 848 25.04 -3.5 25.7 55 -11.3 11.6 0
02:21 1019 30.09 848 25.04 -3.6 25.5 57 -11.1 12.1 0
02:22 1019 30.09 848 25.04 -3.8 25.2 58 -10.8 12.6 0
02:23 1019 30.09 848 25.04 -4 24.8 60 -10.6 12.9 0
02:24 1019 30.09 848 25.04 -4.2 24.5 60 -10.9 12.3 0
02:25 1019 30.09 848 25.04 -4.3 24.2 59 -11.2 11.8 0
02:26 1019 30.09 848 25.04 -4.3 24.3 58 -11.4 11.5 0
02:27 1019 30.09 848 25.04 -4.2 24.5 58 -11.3 11.7 0
02:28 1019 30.09 848 25.04 -4.2 24.5 58 -11.3 11.6 0
02:29 1019 30.09 848 25.04 -4.1 24.6 53 -12.3 9.9 0
02:30 1019 30.09 848 25.04 -3.9 24.9 50 -12.8 9 0
02:31 1019 30.09 848 25.04 -3.7 25.4 50 -12.8 9 0
02:32 1019 30.09 848 25.04 -3.5 25.7 51 -12.2 10.1 0
02:33 1019 30.09 848 25.04 -3.5 25.8 53 -11.8 10.7 0
02:34 1019 30.09 848 25.04 -3.6 25.6 55 -11.3 11.7 0
02:35 1019 30.09 848 25.04 -3.7 25.4 55 -11.5 11.3 0
02:36 1019 30.09 848 25.04 -3.8 25.2 56 -11.3 11.6 0
02:37 1019 30.09 848 25.04 -3.9 25 58 -10.9 12.3 0
02:38 1019 30.09 848 25.04 -4 24.9 54 -11.9 10.6 0
02:39 1019 30.09 848 25.04 -3.9 24.9 58 -11.1 12 0
02:40 1019 30.09 848 25.04 -4.1 24.7 58 -11.1 12 0
02:41 1019 30.09 848 25.04 -4.2 24.5 56 -11.7 11 0
02:42 1019 30.09 848 25.04 -4.2 24.4 56 -11.8 10.8 0
02:43 1019 30.09 848 25.04 -4.2 24.5 57 -11.5 11.3 0
02:44 1019 30.09 848 25.04 -4.2 24.5 58 -11.3 11.7 0
02:45 1019 30.09 848 25.04 -4.3 24.3 59 -11.2 11.9 0
02:46 1019 30.09 848 25.04 -4.5 23.9 59 -11.3 11.7 0
02:47 1019 30.09 848 25.04 -4.7 23.6 60 -11.4 11.5 0
02:48 1019 30.09 848 25.04 -4.8 23.4 59 -11.5 11.2 0
02:49 1019 30.09 848 25.04 -4.8 23.4 60 -11.5 11.4 0
02:50 1019 30.09 848 25.04 -4.9 23.2 60 -11.5 11.4 0
02:51 1019 30.09 848 25.04 -4.9 23.2 61 -11.4 11.5 0
02:52 1019 30.09 848 25.04 -5 23 61 -11.4 11.4 0
02:53 1019 30.09 848 25.04 -5.1 22.8 60 -11.6 11.1 0
02:54 1019 30.09 848 25.04 -5.1 22.8 62 -11.4 11.5 0
02:55 1019 30.09 848 25.04 -5.2 22.6 62 -11.5 11.3 0
02:56 1019 30.09 848 25.04 -5.3 22.4 63 -11.3 11.7 0
02:57 1019 30.09 848 25.04 -5.6 22 65 -11.2 11.9 0
02:58 1019 30.09 848 25.04 -5.8 21.5 67 -11.1 12 0
02:59 1019 30.09 848 25.04 -6.1 21.1 68 -11.1 12 0
03:00 1019 30.09 848 25.04 -6.3 20.7 68 -11.2 11.9 0
03:01 1019 30.09 848 25.04 -6.4 20.6 68 -11.4 11.5 0
03:02 1019 30.09 848 25.04 -6.3 20.7 67 -11.4 11.5 0
03:03 1019 30.09 848 25.04 -6.1 21 67 -11.3 11.7 0
03:04 1019 30.09 848 25.04 -6.1 21 66 -11.5 11.3 0
03:05 1019 30.09 848 25.04 -6.1 21.1 66 -11.4 11.5 0
03:06 1019 30.09 848 25.04 -6 21.2 67 -11.2 11.9 0
03:07 1019 30.09 848 25.04 -6 21.2 68 -11.1 12 0
03:08 1019 30.09 848 25.04 -6 21.2 68 -11 12.2 0
03:09 1019 30.09 848 25.04 -6.1 21 69 -11 12.2 0
03:10 1019 30.09 848 25.04 -6.3 20.7 70 -10.9 12.3 0
03:11 1019 30.09 848 25.04 -6.4 20.4 71 -10.9 12.5 0
03:12 1019 30.09 848 25.04 -6.6 20.2 71 -10.9 12.4 0
03:13 1019 30.09 848 25.04 -6.6 20.1 71 -11 12.3 0
03:14 1019 30.09 848 25.04 -6.6 20.1 71 -11 12.2 0
03:15 1019 30.09 848 25.04 -6.6 20.2 71 -11.1 12.1 0
03:16 1019 30.09 848 25.04 -6.6 20.2 71 -11 12.2 0
03:17 1019 30.09 848 25.04 -6.6 20.1 71 -11 12.1 0
03:18 1019 30.09 848 25.04 -6.7 20 72 -11 12.2 0
03:19 1019 30.09 848 25.04 -6.7 19.9 72 -11 12.2 0
03:20 1019 30.09 848 25.04 -6.8 19.8 70 -11.3 11.7 0
03:21 1019 30.09 848 25.04 -6.6 20.1 71 -11 12.3 0
03:22 1019 30.09 848 25.04 -6.6 20.1 72 -10.8 12.5 0
03:23 1019 30.09 848 25.04 -6.7 20 73 -10.8 12.6 0
03:24 1019 30.09 848 25.04 -6.7 19.9 73 -10.8 12.6 0
03:25 1019 30.09 848 25.04 -6.8 19.7 74 -10.7 12.7 0
03:26 1019 30.09 848 25.04 -7 19.4 74 -10.8 12.6 0
03:27 1019 30.09 848 25.04 -7 19.3 74 -10.9 12.5 0
03:28 1019 30.09 848 25.04 -7 19.4 74 -10.9 12.3 0
03:29 1019 30.09 848 25.04 -7 19.5 74 -10.9 12.3 0
03:30 1019 30.09 848 25.04 -7 19.5 73 -11 12.3 0
03:31 1019 30.09 848 25.04 -6.9 19.6 73 -11 12.3 0
03:32 1019 30.09 848 25.04 -6.9 19.6 72 -11.1 12 0
03:33 1019 30.09 848 25.04 -6.9 19.7 73 -11 12.2 0
03:34 1019 30.09 848 25.04 -6.9 19.5 73 -11 12.1 0
03:35 1019 30.09 848 25.04 -7 19.3 74 -10.9 12.4 0
03:36 1019 30.09 848 25.04 -7.1 19.1 75 -10.8 12.5 0
03:37 1019 30.09 848 25.04 -7.2 19.1 75 -10.9 12.4 0
03:38 1019 30.09 848 25.04 -7.1 19.1 74 -10.9 12.3 0
03:39 1019 30.09 848 25.04 -7.1 19.3 75 -10.8 12.5 0
03:40 1019 30.09 848 25.04 -7.1 19.2 75 -10.8 12.6 0
03:41 1019 30.09 848 25.04 -7.1 19.1 75 -10.8 12.5 0
03:42 1019 30.09 848 25.04 -7.1 19.1 74 -11 12.2 0
03:43 1019 30.09 848 25.04 -7.1 19.3 74 -10.9 12.3 0
03:44 1019 30.09 848 25.04 -7 19.5 73 -10.9 12.3 0
03:45 1019 30.09 848 25.04 -6.8 19.8 71 -11.1 12 0
03:46 1019 30.09 848 25.04 -6.6 20.1 71 -11 12.1 0
03:47 1019 30.09 848 25.04 -6.6 20.1 72 -10.9 12.4 0
03:48 1019 30.09 848 25.04 -6.6 20.1 72 -10.8 12.5 0
03:49 1019 30.09 848 25.04 -6.6 20.1 72 -10.9 12.5 0
03:50 1019 30.09 848 25.04 -6.6 20.1 71 -11 12.3 0
03:51 1019 30.09 848 25.04 -6.6 20.1 72 -10.8 12.6 0
03:52 1019 30.09 848 25.04 -6.7 19.9 72 -10.9 12.4 0
03:53 1019 30.09 848 25.04 -6.8 19.8 72 -11 12.2 0
03:54 1019 30.09 848 25.04 -6.8 19.7 72 -11.1 12.1 0
03:55 1019 30.09 848 25.04 -6.8 19.8 72 -11 12.2 0
03:56 1019 30.09 848 25.04 -6.7 19.9 71 -11.1 12 0
03:57 1019 30.09 848 25.04 -6.6 20 72 -10.9 12.3 0
03:58 1019 30.09 848 25.04 -6.6 20.1 72 -10.8 12.5 0
03:59 1019 30.09 848 25.04 -6.6 20.1 70 -11.2 11.9 0
04:00 1019 30.09 848 25.04 -6.4 20.4 71 -10.9 12.5 0
04:01 1019 30.09 848 25.04 -6.4 20.5 71 -10.8 12.6 0
04:02 1019 30.09 848 25.04 -6.4 20.5 71 -10.8 12.6 0
04:03 1019 30.09 848 25.04 -6.4 20.5 72 -10.6 12.9 0
04:04 1019 30.09 848 25.04 -6.5 20.3 73 -10.5 13 0
04:05 1019 30.09 848 25.04 -6.5 20.3 72 -10.7 12.8 0
04:06 1019 30.09 848 25.04 -6.5 20.3 72 -10.7 12.8 0
04:07 1019 30.09 848 25.04 -6.5 20.3 73 -10.6 12.9 0
04:08 1019 30.09 848 25.04 -6.6 20.2 73 -10.7 12.8 0
04:09 1019 30.09 848 25.04 -6.5 20.3 73 -10.6 12.9 0
04:10 1019 30.09 848 25.04 -6.4 20.4 72 -10.6 12.8 0
04:11 1019 30.09 848 25.04 -6.4 20.5 72 -10.6 12.9 0
04:12 1019 30.09 848 25.04 -6.4 20.4 72 -10.7 12.7 0
04:13 1019 30.09 848 25.04 -6.4 20.5 72 -10.7 12.7 0
04:14 1019 30.09 848 25.04 -6.4 20.5 72 -10.6 12.8 0
04:15 1019 30.09 848 25.04 -6.4 20.5 73 -10.5 13 0
04:16 1019 30.09 848 25.04 -6.5 20.3 72 -10.8 12.6 0
04:17 1019 30.09 848 25.04 -6.4 20.5 72 -10.7 12.7 0
04:18 1019 30.09 848 25.04 -6.4 20.5 71 -10.9 12.4 0
04:19 1019 30.09 848 25.04 -6.4 20.6 68 -11.3 11.7 0
04:20 1019 30.09 848 25.04 -6.2 20.9 70 -10.9 12.5 0
04:21 1019 30.09 848 25.04 -6.2 20.9 69 -10.9 12.3 0
04:22 1019 30.09 848 25.04 -6.2 20.8 70 -10.8 12.6 0
04:23 1019 30.09 848 25.04 -6.2 20.8 70 -10.8 12.5 0
04:24 1019 30.09 848 25.04 -6.2 20.8 71 -10.7 12.8 0
04:25 1019 30.09 848 25.04 -6.3 20.7 71 -10.6 12.8 0
04:26 1019 30.09 848 25.04 -6.4 20.5 72 -10.6 12.9 0
04:27 1019 30.09 848 25.04 -6.4 20.5 73 -10.5 13.1 0
04:28 1019 30.09 848 25.04 -6.5 20.3 73 -10.5 13 0
04:29 1019 30.09 848 25.04 -6.5 20.2 74 -10.5 13.1 0
04:30 1019 30.09 848 25.04 -6.6 20.2 73 -10.6 13 0
04:31 1019 30.09 848 25.04 -6.6 20.1 73 -10.6 12.9 0
04:32 1019 30.09 848 25.04 -6.8 19.8 74 -10.7 12.7 0
04:33 1019 30.09 848 25.04 -6.8 19.7 74 -10.8 12.6 0
04:34 1019 30.09 848 25.04 -6.9 19.7 73 -10.9 12.4 0
04:35 1019 30.09 848 25.04 -6.8 19.8 73 -10.8 12.6 0
04:36 1019 30.09 848 25.04 -6.7 19.9 74 -10.7 12.7 0
04:37 1019 30.09 848 25.04 -6.7 19.9 74 -10.6 12.9 0
04:38 1019 30.09 848 25.04 -6.6 20 75 -10.4 13.2 0
04:39 1019 30.09 848 25.04 -6.6 20.1 75 -10.4 13.4 0
04:40 1019 30.09 848 25.04 -6.6 20.2 74 -10.4 13.3 0
04:41 1019 30.09 848 25.04 -6.5 20.2 75 -10.3 13.4 0
04:42 1019 30.09 848 25.04 -6.5 20.4 73 -10.5 13.1 0
04:43 1019 30.09 848 25.04 -6.3 20.6 73 -10.4 13.3 0
04:44 1019 30.09 848 25.04 -6.3 20.7 74 -10.2 13.6 0
04:45 1019 30.09 848 25.04 -6.2 20.8 74 -10.2 13.7 0
04:46 1019 30.09 848 25.04 -6.1 21 73 -10.2 13.6 0
04:47 1019 30.09 848 25.04 -6.1 21 74 -10 13.9 0
04:48 1019 30.09 848 25.04 -6.1 21 73 -10.2 13.7 0
04:49 1019 30.09 848 25.04 -6 21.2 73 -10.1 13.8 0
04:50 1019 30.09 848 25.04 -6 21.2 73 -10 13.9 0
04:51 1019 30.09 848 25.04 -6 21.2 75 -9.8 14.3 0
04:52 1019 30.09 848 25.04 -6.1 21.1 75 -9.8 14.4 0
04:53 1019 30.09 848 25.04 -6.1 21 75 -9.9 14.2 0
04:54 1019 30.09 848 25.04 -6 21.1 75 -9.8 14.4 0
04:55 1019 30.09 848 25.04 -6 21.2 74 -10 14 0
04:56 1019 30.09 848 25.04 -6 21.3 73 -10 14 0
04:57 1019 30.09 848 25.04 -5.9 21.4 75 -9.7 14.6 0
04:58 1019 30.09 848 25.04 -5.9 21.4 74 -9.7 14.5 0
04:59 1019 30.09 848 25.04 -5.8 21.5 74 -9.7 14.5 0
05:00 1019 30.09 848 25.04 -5.8 21.6 73 -9.8 14.3 0
05:01 1019 30.09 848 25.04 -5.8 21.6 75 -9.6 14.8 0
05:02 1019 30.09 848 25.04 -5.8 21.6 74 -9.7 14.5 0
05:03 1019 30.09 848 25.04 -5.7 21.7 75 -9.6 14.8 0
05:04 1019 30.09 848 25.04 -5.7 21.7 74 -9.6 14.7 0
05:05 1019 30.09 848 25.04 -5.7 21.8 75 -9.5 14.9 0
05:06 1019 30.09 848 25.04 -5.6 21.8 74 -9.5 14.9 0
05:07 1019 30.09 848 25.04 -5.6 21.9 74 -9.5 15 0
05:08 1019 30.09 848 25.04 -5.6 22 75 -9.4 15.1 0
05:09 1019 30.09 848 25.04 -5.6 22 75 -9.4 15.2 0
05:10 1019 30.09 848 25.04 -5.6 22 76 -9.2 15.5 0
05:11 1019 30.09 848 25.04 -5.6 22 76 -9.2 15.5 0
05:12 1019 30.09 848 25.04 -5.6 21.9 75 -9.3 15.3 0
05:13 1019 30.09 848 25.04 -5.6 22 75 -9.3 15.3 0
05:14 1019 30.09 848 25.04 -5.5 22 75 -9.2 15.4 0
05:15 1019 30.09 848 25.04 -5.5 22.1 75 -9.2 15.4 0
05:16 1019 30.09 848 25.04 -5.5 22.2 76 -9 15.7 0
05:17 1019 30.09 848 25.04 -5.5 22.2 76 -9 15.8 0
05:18 1019 30.09 848 25.04 -5.5 22.1 76 -9 15.8 0
05:19 1019 30.09 848 25.04 -5.5 22 77 -9 15.9 0
05:20 1019 30.09 848 25.04 -5.6 22 78 -8.9 16.1 0
05:21 1019 30.09 848 25.04 -5.6 21.9 78 -8.8 16.1 0
05:22 1019 30.09 848 25.04 -5.6 21.9 78 -8.9 16 0
05:23 1019 30.09 848 25.04 -5.6 21.8 78 -8.9 15.9 0
05:24 1019 30.09 848 25.04 -5.6 21.9 77 -9.1 15.7 0
05:25 1019 30.09 848 25.04 -5.6 22 77 -9 15.8 0
05:26 1019 30.09 848 25.04 -5.5 22 77 -8.9 16 0
05:27 1019 30.09 848 25.04 -5.6 22 78 -8.8 16.2 0
05:28 1019 30.09 848 25.04 -5.6 21.9 79 -8.6 16.5 0
05:29 1019 30.09 848 25.04 -5.7 21.8 79 -8.7 16.3 0
05:30 1019 30.09 848 25.04 -5.7 21.7 80 -8.7 16.4 0
05:31 1019 30.09 848 25.04 -5.7 21.7 79 -8.8 16.1 0
05:32 1019 30.09 848 25.04 -5.7 21.7 78 -8.9 15.9 0
05:33 1019 30.09 848 25.04 -5.7 21.7 77 -9.1 15.6 0
05:34 1019 30.09 848 25.04 -5.7 21.8 78 -9 15.9 0
05:35 1019 30.09 848 25.04 -5.7 21.8 77 -9 15.7 0
05:36 1019 30.09 848 25.04 -5.6 21.9 77 -9 15.9 0
05:37 1019 30.09 848 25.04 -5.6 21.8 78 -8.9 15.9 0
05:38 1019 30.09 848 25.04 -5.7 21.8 77 -9.1 15.7 0
05:39 1019 30.09 848 25.04 -5.6 21.8 77 -9 15.7 0
05:40 1019 30.09 848 25.04 -5.6 21.9 77 -9 15.9 0
05:41 1019 30.09 848 25.04 -5.6 21.9 77 -9 15.7 0
05:42 1019 30.09 848 25.04 -5.6 21.9 76 -9.2 15.5 0
05:43 1019 30.09 848 25.04 -5.6 21.9 76 -9.2 15.5 0
05:44 1019 30.09 848 25.04 -5.5 22 75 -9.4 15.2 0
05:45 1019 30.09 848 25.04 -5.4 22.2 75 -9.2 15.4 0
05:46 1019 30.09 848 25.04 -5.4 22.3 74 -9.3 15.2 0
05:47 1019 30.09 848 25.04 -5.4 22.3 74 -9.4 15.1 0
05:48 1019 30.09 848 25.04 -5.4 22.3 74 -9.3 15.2 0
05:49 1019 30.09 848 25.04 -5.3 22.4 73 -9.4 15.1 0
05:50 1019 30.09 848 25.04 -5.3 22.4 73 -9.4 15 0
05:51 1019 30.09 848 25.04 -5.3 22.5 72 -9.5 14.9 0
05:52 1019 30.09 848 25.04 -5.3 22.5 74 -9.3 15.3 0
05:53 1019 30.09 848 25.04 -5.4 22.4 74 -9.3 15.3 0
05:54 1019 30.09 848 25.04 -5.3 22.4 74 -9.3 15.3 0
05:55 1019 30.09 848 25.04 -5.4 22.3 74 -9.4 15.1 0
05:56 1019 30.09 848 25.04 -5.4 22.2 74 -9.4 15.1 0
05:57 1019 30.09 848 25.04 -5.4 22.2 74 -9.4 15.1 0
05:58 1019 30.09 848 25.04 -5.4 22.2 74 -9.4 15.1 0
05:59 1019 30.09 848 25.04 -5.5 22.2 72 -9.7 14.6 0
06:00 1019 30.09 848 25.04 -5.5 22.2 73 -9.6 14.8 0
06:01 1019 30.09 848 25.04 -5.5 22.2 73 -9.5 14.9 0
06:02 1019 30.09 848 25.04 -5.5 22.2 73 -9.5 14.9 0
06:03 1019 30.09 848 25.04 -5.5 22.2 73 -9.5 14.9 0
06:04 1019 30.09 848 25.04 -5.4 22.2 74 -9.4 15.1 0
06:05 1019 30.09 848 25.04 -5.5 22.2 74 -9.5 15 0
06:06 1019 30.09 848 25.04 -5.5 22.1 74 -9.5 15 0
06:07 1019 30.09 848 25.04 -5.5 22.1 73 -9.6 14.7 0
06:08 1019 30.09 848 25.04 -5.5 22.1 73 -9.6 14.7 0
06:09 1019 30.09 848 25.04 -5.5 22.1 74 -9.5 15 0
06:10 1019 30.09 848 25.04 -5.5 22 74 -9.4 15.1 0
06:11 1019 30.09 848 25.04 -5.6 21.9 75 -9.5 15 0
06:12 1019 30.09 848 25.04 -5.7 21.8 75 -9.4 15.1 0
06:13 1019 30.09 848 25.04 -5.6 21.8 77 -9 15.7 0
06:14 1019 30.09 848 25.04 -5.6 21.9 77 -9.1 15.6 0
06:15 1019 30.09 848 25.04 -5.6 22 76 -9.1 15.6 0
06:16 1019 30.09 848 25.04 -5.6 22 75 -9.3 15.2 0
06:17 1019 30.09 848 25.04 -5.5 22 75 -9.4 15.1 0
06:18 1019 30.09 848 25.04 -5.5 22.1 73 -9.5 14.8 0
06:19 1019 30.09 848 25.04 -5.4 22.2 71 -9.9 14.2 0
06:20 1019 30.09 848 25.04 -5.4 22.3 71 -9.9 14.2 0
06:21 1019 30.09 848 25.04 -5.3 22.5 70 -10 14 0
06:22 1019 30.09 848 25.04 -5.2 22.6 69 -10 13.9 0
06:23 1019 30.09 848 25.04 -5.1 22.8 69 -10 14.1 0
06:24 1019 30.09 848 25.04 -5.1 22.9 70 -9.8 14.4 0
06:25 1019 30.09 848 25.04 -5.1 22.9 70 -9.7 14.6 0
06:26 1019 30.09 848 25.04 -5 22.9 70 -9.7 14.5 0
06:27 1019 30.09 848 25.04 -5.1 22.8 71 -9.6 14.7 0
06:28 1019 30.09 848 25.04 -5.1 22.8 72 -9.4 15 0
06:29 1019 30.09 848 25.04 -5.2 22.7 72 -9.5 14.9 0
06:30 1019 30.09 848 25.04 -5.2 22.6 71 -9.6 14.7 0
06:31 1019 30.09 848 25.04 -5.2 22.7 71 -9.6 14.7 0
06:32 1019 30.09 848 25.04 -5.2 22.7 71 -9.7 14.6 0
06:33 1019 30.09 848 25.04 -5.1 22.8 71 -9.5 14.8 0
06:34 1019 30.09 848 25.04 -5.1 22.8 72 -9.5 14.9 0
06:35 1019 30.09 848 25.04 -5.1 22.8 72 -9.5 14.9 0
06:36 1019 30.09 848 25.04 -5.1 22.7 71 -9.6 14.7 0
06:37 1019 30.09 848 25.04 -5.2 22.7 71 -9.6 14.7 0
06:38 1019 30.09 848 25.04 -5.2 22.7 71 -9.7 14.5 0
06:39 1019 30.09 848 25.04 -5.2 22.6 71 -9.7 14.5 0
06:40 1019 30.09 848 25.04 -5.2 22.6 70 -9.9 14.2 0
06:41 1019 30.09 848 25.04 -5.3 22.5 71 -9.7 14.5 0
06:42 1019 30.09 848 25.04 -5.3 22.5 71 -9.8 14.3 0
06:43 1019 30.09 848 25.04 -5.3 22.5 71 -9.8 14.4 0
06:44 1019 30.09 848 25.04 -5.3 22.5 71 -9.8 14.4 0
06:45 1019 30.09 848 25.04 -5.4 22.4 71 -9.9 14.2 0
06:46 1019 30.09 848 25.04 -5.3 22.4 71 -9.8 14.3 0
06:47 1019 30.09 848 25.04 -5.4 22.3 71 -9.9 14.2 0
06:48 1019 30.09 848 25.04 -5.4 22.3 71 -9.9 14.3 0
06:49 1019 30.09 848 25.04 -5.4 22.2 72 -9.8 14.4 0
06:50 1019 30.09 848 25.04 -5.4 22.2 72 -9.7 14.6 0
06:51 1019 30.09 848 25.04 -5.5 22.2 72 -9.7 14.6 0
06:52 1019 30.09 848 25.04 -5.5 22.1 72 -9.8 14.4 0
06:53 1019 30.09 848 25.04 -5.5 22.1 73 -9.6 14.8 0
06:54 1019 30.09 848 25.04 -5.5 22 72 -9.8 14.4 0
06:55 1019 30.09 848 25.04 -5.6 22 72 -9.8 14.3 0
06:56 1019 30.09 848 25.04 -5.6 21.9 72 -9.8 14.3 0
06:57 1019 30.09 848 25.04 -5.6 21.9 72 -9.8 14.4 0
06:58 1019 30.09 848 25.04 -5.6 21.9 73 -9.7 14.5 0
06:59 1019 30.09 848 25.04 -5.6 21.9 73 -9.7 14.5 0
07:00 1019 30.09 848 25.04 -5.7 21.8 74 -9.5 14.8 0
07:01 1019 30.09 848 25.04 -5.7 21.7 75 -9.5 14.9 0
07:02 1019 30.09 848 25.04 -5.9 21.4 76 -9.4 15 0
07:03 1019 30.09 848 25.04 -6 21.3 77 -9.4 15.2 0
07:04 1019 30.09 848 25.04 -6.1 21 79 -9.2 15.4 0
07:05 1019 30.09 848 25.04 -6.2 20.8 80 -9.1 15.7 0
07:06 1019 30.09 848 25.04 -6.2 20.8 80 -9.1 15.6 0
07:07 1019 30.09 848 25.04 -6.2 20.9 81 -8.9 15.9 0
07:08 1019 30.09 848 25.04 -6.1 20.9 80 -9 15.8 0
07:09 1019 30.09 848 25.04 -6.2 20.9 81 -9 15.9 0
07:10 1019 30.09 848 25.04 -6.2 20.8 81 -8.9 15.9 0
07:11 1019 30.09 848 25.04 -6.3 20.7 82 -8.8 16.1 0
07:12 1019 30.09 848 25.04 -6.3 20.6 81 -9 15.7 0
07:13 1019 30.09 848 25.04 -6.4 20.5 81 -9.2 15.5 0
07:14 1019 30.09 848 25.04 -6.4 20.4 80 -9.3 15.3 0
07:15 1019 30.09 848 25.04 -6.4 20.5 79 -9.4 15 0
07:16 1019 30.09 848 25.04 -6.4 20.5 79 -9.5 15 0
07:17 1019 30.09 848 25.04 -6.4 20.5 78 -9.6 14.8 0
07:18 1019 30.09 848 25.04 -6.3 20.6 77 -9.7 14.6 0
07:19 1019 30.09 848 25.04 -6.4 20.5 77 -9.9 14.3 0
07:20 1019 30.09 848 25.04 -6.4 20.6 77 -9.8 14.3 0
07:21 1019 30.09 848 25.04 -6.3 20.6 75 -10 14 0
07:22 1019 30.09 848 25.04 -6.4 20.6 76 -10 14 0
07:23 1019 30.09 848 25.04 -6.4 20.6 76 -9.9 14.1 0
07:24 1019 30.09 848 25.04 -6.4 20.5 77 -9.8 14.3 0
07:25 1019 30.09 848 25.04 -6.4 20.6 75 -10.1 13.9 0
07:26 1019 30.09 848 25.04 -6.4 20.6 74 -10.3 13.5 0
07:27 1019 30.09 848 25.04 -6.3 20.7 74 -10.3 13.5 0
07:28 1019 30.09 848 25.04 -6.3 20.7 74 -10.2 13.6 0
07:29 1019 30.09 848 25.04 -6.2 20.8 73 -10.3 13.5 0
07:30 1019 30.09 848 25.04 -6.2 20.8 73 -10.3 13.4 0
07:31 1019 30.09 848 25.04 -6.2 20.9 73 -10.3 13.4 0
07:32 1019 30.09 848 25.04 -6.2 20.9 72 -10.5 13.2 0
07:33 1019 30.09 848 25.04 -6.1 21 73 -10.1 13.8 0
07:34 1019 30.09 848 25.04 -6.1 21 73 -10.2 13.7 0
07:35 1019 30.09 848 25.04 -6 21.1 75 -9.7 14.5 0
07:36 1019 30.09 848 25.04 -6 21.1 75 -9.8 14.4 0
07:37 1019 30.09 848 25.04 -6 21.2 74 -9.9 14.2 0
07:38 1019 30.09 848 25.04 -6 21.3 73 -10.1 13.9 0
07:39 1019 30.09 848 25.04 -5.9 21.3 72 -10.2 13.6 0
07:40 1019 30.09 848 25.04 -5.9 21.4 72 -10.2 13.6 0
07:41 1019 30.09 848 25.04 -5.9 21.4 71 -10.3 13.4 0
07:42 1019 30.09 848 25.04 -5.8 21.6 69 -10.6 12.9 0
07:43 1019 30.09 848 25.04 -5.7 21.7 70 -10.4 13.3 0
07:44 1019 30.09 848 25.04 -5.7 21.7 72 -10 14 0
07:45 1019 30.09 848 25.04 -5.7 21.8 71 -10.1 13.9 0
07:46 1019 30.09 848 25.04 -5.6 21.9 70 -10.2 13.6 0
07:47 1019 30.09 848 25.04 -5.6 21.9 70 -10.2 13.7 0
07:48 1019 30.09 848 25.04 -5.5 22 70 -10.2 13.7 0
07:49 1019 30.09 848 25.04 -5.5 22.1 71 -9.9 14.2 0
07:50 1019 30.09 848 25.04 -5.5 22.1 69 -10.3 13.5 0
07:51 1019 30.09 848 25.04 -5.4 22.2 71 -10 14 0
07:52 1019 30.09 848 25.04 -5.4 22.2 71 -10 14 0
07:53 1019 30.09 848 25.04 -5.4 22.2 72 -9.7 14.5 0
07:54 1019 30.09 848 25.04 -5.4 22.2 72 -9.7 14.6 0
07:55 1019 30.09 848 25.04 -5.4 22.3 69 -10.1 13.7 0
07:56 1019 30.09 848 25.04 -5.4 22.3 72 -9.7 14.5 0
07:57 1019 30.09 848 25.04 -5.4 22.3 72 -9.7 14.5 0
07:58 1019 30.09 848 25.04 -5.3 22.4 68 -10.3 13.5 0
07:59 1019 30.09 848 25.04 -5.3 22.4 71 -9.8 14.3 0
08:00 1019 30.09 848 25.04 -5.2 22.6 72 -9.5 14.8 0
08:01 1019 30.09 848 25.04 -5.2 22.6 71 -9.7 14.5 0
08:02 1019 30.09 848 25.04 -5.2 22.6 70 -9.9 14.3 0
08:03 1019 30.09 848 25.04 -5.2 22.7 71 -9.6 14.8 0
08:04 1019 30.09 848 25.04 -5.1 22.8 69 -10 14.1 0
08:05 1019 30.09 848 25.04 -5.1 22.8 67 -10.3 13.5 0
08:06 1019 30.09 848 25.04 -5.1 22.8 69 -10 14 0
08:07 1019 30.09 848 25.04 -5.1 22.8 67 -10.4 13.3 0
08:08 1019 30.09 848 25.04 -5.1 22.8 68 -10.1 13.8 0
08:09 1019 30.09 848 25.04 -5.1 22.8 67 -10.4 13.4 0
08:10 1019 30.09 848 25.04 -5.1 22.9 65 -10.6 12.9 0
08:11 1019 30.09 848 25.04 -5 23 66 -10.4 13.3 0
08:12 1019 30.09 848 25.04 -5 23.1 66 -10.3 13.5 0
08:13 1019 30.09 848 25.04 -5 23 65 -10.6 13 0
08:14 1019 30.09 848 25.04 -4.9 23.1 65 -10.5 13 0
08:15 1019 30.09 848 25.04 -4.9 23.2 65 -10.6 12.9 0
08:16 1019 30.09 848 25.04 -4.9 23.2 68 -9.9 14.1 0
08:17 1019 30.09 848 25.04 -4.8 23.4 67 -10 14.1 0
08:18 1019 30.09 848 25.04 -4.8 23.4 68 -9.8 14.3 0
08:19 1019 30.09 848 25.04 -4.7 23.5 71 -9.2 15.4 0
08:20 1019 30.09 848 25.04 -4.6 23.6 69 -9.5 14.8 0
08:21 1019 30.09 848 25.04 -4.6 23.7 70 -9.3 15.2 0
08:22 1019 30.09 848 25.04 -4.6 23.8 69 -9.5 14.9 0
08:23 1019 30.09 848 25.04 -4.5 23.8 68 -9.5 14.9 0
08:24 1019 30.09 848 25.04 -4.5 23.9 66 -10 14 0
08:25 1019 30.09 848 25.04 -4.5 23.9 68 -9.5 14.8 0
08:26 1019 30.09 848 25.04 -4.5 23.9 66 -9.9 14.2 0
08:27 1019 30.09 848 25.04 -4.4 24 67 -9.7 14.5 0
08:28 1019 30.09 848 25.04 -4.4 24.1 66 -9.8 14.3 0
08:29 1019 30.09 848 25.04 -4.4 24.1 67 -9.7 14.6 0
08:30 1019 30.09 848 25.04 -4.3 24.2 69 -9.2 15.5 0
08:31 1019 30.09 848 25.04 -4.3 24.3 67 -9.5 14.9 0
08:32 1019 30.09 848 25.04 -4.2 24.4 64 -10 14 0
08:33 1019 30.09 848 25.04 -4.2 24.5 68 -9.2 15.4 0
08:34 1019 30.09 848 25.04 -4.1 24.6 65 -9.8 14.4 0
08:35 1019 30.09 848 25.04 -4.1 24.7 65 -9.7 14.6 0
08:36 1019 30.09 848 25.04 -4.1 24.7 68 -9.2 15.4 0
08:37 1019 30.09 848 25.04 -4 24.7 63 -10 14 0
08:38 1019 30.09 848 25.04 -4 24.8 63 -10 14 0
08:39 1019 30.09 848 25.04 -3.9 24.9 64 -9.8 14.4 0
08:40 1019 30.09 848 25.04 -3.9 25 64 -9.7 14.6 0
08:41 1019 30.09 848 25.04 -3.8 25.1 65 -9.5 14.9 0
08:42 1019 30.09 848 25.04 -3.8 25.2 65 -9.4 15 0
08:43 1019 30.09 848 25.04 -3.8 25.2 65 -9.4 15.1 0
08:44 1019 30.09 848 25.04 -3.7 25.3 62 -9.9 14.2 0
08:45 1019 30.09 848 25.04 -3.7 25.3 64 -9.7 14.6 0
08:46 1019 30.09 848 25.04 -3.7 25.3 64 -9.5 14.8 0
08:47 1019 30.09 848 25.04 -3.7 25.3 63 -9.8 14.4 0
08:48 1019 30.09 848 25.04 -3.7 25.4 65 -9.4 15.2 0
08:49 1019 30.09 848 25.04 -3.6 25.5 65 -9.4 15.1 0
08:50 1019 30.09 848 25.04 -3.5 25.6 63 -9.6 14.8 0
08:51 1019 30.09 848 25.04 -3.5 25.7 62 -9.8 14.4 0
08:52 1019 30.09 848 25.04 -3.5 25.7 60 -10.1 13.8 0
08:53 1019 30.09 848 25.04 -3.4 25.8 60 -10.2 13.6 0
08:54 1019 30.09 848 25.04 -3.4 25.9 65 -8.9 15.9 0
08:55 1019 30.09 848 25.04 -3.4 25.9 64 -9.2 15.4 0
08:56 1019 30.09 848 25.04 -3.4 25.9 62 -9.6 14.7 0
08:57 1019 30.09 848 25.04 -3.4 25.9 64 -9.3 15.2 0
08:58 1019 30.09 848 25.04 -3.4 25.9 65 -9 15.9 0
08:59 1019 30.09 848 25.04 -3.3 26 64 -9.2 15.5 0
09:00 1019 30.09 848 25.04 -3.4 25.9 66 -8.9 16 0
09:01 1019 30.09 848 25.04 -3.4 25.9 66 -8.9 16 0
09:02 1019 30.09 848 25.04 -3.4 25.9 62 -9.6 14.8 0
09:03 1019 30.09 848 25.04 -3.4 25.9 61 -9.8 14.3 0
09:04 1019 30.09 848 25.04 -3.4 26 60 -10 14 0
09:05 1019 30.09 848 25.04 -3.4 26 61 -9.8 14.3 0
09:06 1019 30.09 848 25.04 -3.3 26 63 -9.5 14.9 0
09:07 1019 30.09 848 25.04 -3.2 26.2 60 -10 14.1 0
09:08 1019 30.09 848 25.04 -3.1 26.5 60 -9.9 14.2 0
09:09 1019 30.09 848 25.04 -2.9 26.7 57 -10.2 13.6 0
09:10 1019 30.09 848 25.04 -2.8 26.9 56 -10.4 13.3 0
09:11 1019 30.09 848 25.04 -2.7 27.1 57 -10.2 13.7 0
09:12 1019 30.09 848 25.04 -2.6 27.3 57 -9.9 14.2 0
09:13 1019 30.09 848 25.04 -2.4 27.7 55 -10.2 13.6 0
09:14 1019 30.09 848 25.04 -2.3 27.9 55 -10.2 13.7 0
09:15 1019 30.09 848 25.04 -2.3 27.8 54 -10.4 13.3 0
09:16 1019 30.09 848 25.04 -2.4 27.7 55 -10.2 13.6 0
09:17 1019 30.09 848 25.04 -2.4 27.6 57 -9.8 14.4 0
09:18 1019 30.09 848 25.04 -2.4 27.6 57 -9.8 14.3 0
09:19 1019 30.09 848 25.04 -2.4 27.7 56 -10 14 0
09:20 1019 30.09 848 25.04 -2.3 27.8 56 -9.9 14.2 0
09:21 1019 30.09 848 25.04 -2.3 27.8 55 -10.2 13.6 0
09:22 1019 30.09 848 25.04 -2.3 27.9 57 -9.7 14.6 0
09:23 1019 30.09 848 25.04 -2.3 27.9 55 -10 13.9 0
09:24 1019 30.09 848 25.04 -2.2 28 55 -10.2 13.7 0
09:25 1019 30.09 848 25.04 -2.2 28 58 -9.4 15.2 0
09:26 1019 30.09 848 25.04 -2.1 28.2 55 -10 13.9 0
09:27 1019 30.09 848 25.04 -2.1 28.3 53 -10.4 13.3 0
09:28 1019 30.09 848 25.04 -2.1 28.3 56 -9.7 14.6 0
09:29 1019 30.09 848 25.04 -2.1 28.2 55 -9.9 14.2 0
09:30 1019 30.09 848 25.04 -2 28.4 54 -10.2 13.7 0
09:31 1019 30.09 848 25.04 -2 28.5 56 -9.7 14.5 0
09:32 1019 30.09 848 25.04 -1.8 28.7 56 -9.4 15.1 0
09:33 1019 30.09 848 25.04 -1.7 29 56 -9.4 15.2 0
09:34 1019 30.09 848 25.04 -1.6 29.1 55 -9.6 14.7 0
09:35 1019 30.09 848 25.04 -1.5 29.2 54 -9.8 14.4 0
09:36 1019 30.09 848 25.04 -1.5 29.3 53 -9.8 14.3 0
09:37 1019 30.09 848 25.04 -1.4 29.5 52 -10.1 13.9 0
09:38 1019 30.09 848 25.04 -1.2 29.9 50 -10.4 13.3 0
09:39 1019 30.09 848 25.04 -1.2 29.8 49 -10.6 13 0
09:40 1019 30.09 848 25.04 -1.4 29.5 50 -10.5 13.2 0
09:41 1019 30.09 848 25.04 -1.6 29 51 -10.4 13.2 0
09:42 1019 30.09 848 25.04 -1.7 28.9 51 -10.7 12.8 0
09:43 1019 30.09 848 25.04 -1.7 28.9 50 -10.9 12.4 0
09:44 1019 30.09 848 25.04 -1.9 28.5 50 -10.9 12.3 0
09:45 1019 30.09 848 25.04 -2.1 28.2 51 -11 12.3 0
09:46 1019 30.09 848 25.04 -2.2 28.1 52 -10.8 12.5 0
09:47 1019 30.09 848 25.04 -2.1 28.2 52 -10.6 12.8 0
09:48 1019 30.09 848 25.04 -2 28.4 50 -11.1 12 0
09:49 1019 30.09 848 25.04 -1.9 28.6 51 -10.8 12.6 0
09:50 1019 30.09 848 25.04 -1.8 28.8 51 -10.6 12.9 0
09:51 1019 30.09 848 25.04 -1.8 28.8 51 -10.5 13 0
09:52 1019 30.09 848 25.04 -1.8 28.8 51 -10.7 12.7 0
09:53 1019 30.09 848 25.04 -1.7 29 51 -10.6 12.9 0
09:54 1019 30.09 848 25.04 -1.6 29.1 50 -10.6 12.9 0
09:55 1019 30.09 848 25.04 -1.5 29.4 50 -10.6 12.9 0
09:56 1019 30.09 848 25.04 -1.3 29.7 52 -10 13.9 0
09:57 1019 30.09 848 25.04 -1.1 30 48 -10.8 12.5 0
09:58 1019 30.09 848 25.04 -1.2 29.8 51 -10.1 13.9 0
09:59 1019 30.09 848 25.04 -1.3 29.7 51 -10.2 13.6 0
10:00 1019 30.09 848 25.04 -1.3 29.6 50 -10.6 12.9 0
10:01 1019 30.09 848 25.04 -1.5 29.3 53 -10 14.1 0
10:02 1019 30.09 848 25.04 -1.6 29.1 52 -10.3 13.5 0
10:03 1019 30.09 848 25.04 -1.6 29.1 49 -11 12.2 0
10:04 1019 30.09 848 25.04 -1.6 29.1 49 -10.9 12.3 0
10:05 1019 30.09 848 25.04 -1.6 29.2 51 -10.6 13 0
10:06 1019 30.09 848 25.04 -1.5 29.3 50 -10.7 12.7 0
10:07 1019 30.09 848 25.04 -1.4 29.4 50 -10.7 12.8 0
10:08 1019 30.09 848 25.04 -1.5 29.3 50 -10.7 12.7 0
10:09 1019 30.09 848 25.04 -1.5 29.2 51 -10.4 13.2 0
10:10 1019 30.09 848 25.04 -1.5 29.3 53 -9.9 14.2 0
10:11 1019 30.09 848 25.04 -1.6 29.2 52 -10.2 13.7 0
10:12 1019 30.09 848 25.04 -1.6 29.1 51 -10.5 13.1 0
10:13 1019 30.09 848 25.04 -1.6 29 50 -10.7 12.7 0
10:14 1019 30.09 848 25.04 -1.7 28.9 50 -10.9 12.4 0
10:15 1019 30.09 848 25.04 -1.7 29 50 -10.7 12.7 0
10:16 1019 30.09 848 25.04 -1.6 29 49 -11 12.2 0
10:17 1019 30.09 848 25.04 -1.6 29.1 47 -11.6 11.1 0
10:18 1019 30.09 848 25.04 -1.6 29.1 48 -11.1 12 0
10:19 1019 30.09 848 25.04 -1.5 29.3 48 -11.2 11.8 0
10:20 1019 30.09 848 25.04 -1.4 29.5 51 -10.3 13.4 0
10:21 1019 30.09 848 25.04 -1.3 29.6 47 -11.3 11.7 0
10:22 1019 30.09 848 25.04 -1.3 29.7 48 -11 12.2 0
10:23 1019 30.09 848 25.04 -1.3 29.6 47 -11.3 11.6 0
10:24 1019 30.09 848 25.04 -1.2 29.8 46 -11.6 11.2 0
10:25 1019 30.09 848 25.04 -1.2 29.8 47 -11.3 11.7 0
10:26 1019 30.09 848 25.04 -1.1 30 45 -11.8 10.8 0
10:27 1019 30.09 848 25.04 -1.2 29.9 46 -11.2 11.8 0
10:28 1019 30.09 848 25.04 -1.2 29.9 47 -11.1 12.1 0
10:29 1019 30.09 848 25.04 -1.3 29.7 46 -11.6 11.2 0
10:30 1019 30.09 848 25.04 -1.4 29.5 49 -10.7 12.7 0
10:31 1019 30.09 848 25.04 -1.4 29.5 47 -11.3 11.7 0
10:32 1019 30.09 848 25.04 -1.4 29.5 48 -10.9 12.3 0
10:33 1019 30.09 848 25.04 -1.2 29.8 48 -10.8 12.5 0
10:34 1019 30.09 848 25.04 -1.1 30 50 -10.3 13.4 0
10:35 1019 30.09 848 25.04 -0.9 30.3 48 -10.6 13 0
10:36 1019 30.09 848 25.04 -1 30.2 48 -10.6 12.9 0
10:37 1019 30.09 848 25.04 -1.2 29.9 46 -11.3 11.7 0
10:38 1019 30.09 848 25.04 -1.3 29.6 51 -10.2 13.6 0
10:39 1019 30.09 848 25.04 -1.3 29.7 49 -10.6 12.9 0
10:40 1019 30.09 848 25.04 -1.2 29.8 49 -10.6 12.9 0
10:41 1019 30.09 848 25.04 -1.2 29.9 48 -10.9 12.4 0
10:42 1019 30.09 848 25.04 -1.2 29.8 46 -11.3 11.6 0
10:43 1019 30.09 848 25.04 -1.2 29.8 51 -10.2 13.6 0
10:44 1019 30.09 848 25.04 -1.1 30 53 -9.5 14.8 0
10:45 1019 30.09 848 25.04 -1 30.2 50 -10.1 13.8 0
10:46 1019 30.09 848 25.04 -0.9 30.3 50 -10.2 13.6 0
10:47 1019 30.09 848 25.04 -0.9 30.5 47 -10.7 12.7 0
10:48 1019 30.09 848 25.04 -0.9 30.4 47 -10.9 12.3 0
10:49 1019 30.09 848 25.04 -1 30.3 49 -10.4 13.4 0
10:50 1019 30.09 848 25.04 -0.8 30.5 48 -10.6 12.9 0
10:51 1019 30.09 848 25.04 -0.7 30.7 48 -10.5 13.1 0
10:52 1019 30.09 848 25.04 -0.7 30.7 50 -10 14 0
10:53 1019 30.09 848 25.04 -0.7 30.8 44 -11.4 11.5 0
10:54 1019 30.09 848 25.04 -0.7 30.7 44 -11.4 11.5 0
10:55 1019 30.09 848 25.04 -0.8 30.5 44 -11.6 11.2 0
10:56 1019 30.09 848 25.04 -0.9 30.4 45 -11.4 11.6 0
10:57 1019 30.09 848 25.04 -0.9 30.3 48 -10.7 12.8 0
10:58 1019 30.09 848 25.04 -1 30.3 47 -10.8 12.6 0
10:59 1019 30.09 848 25.04 -0.9 30.3 51 -9.8 14.3 0
11:00 1019 30.09 848 25.04 -0.8 30.6 47 -10.8 12.5 0
11:01 1019 30.09 848 25.04 -0.7 30.7 51 -9.6 14.8 0
11:02 1019 30.09 848 25.04 -0.6 31 49 -10.1 13.8 0
11:03 1019 30.09 848 25.04 -0.5 31 46 -10.7 12.8 0
11:04 1019 30.09 848 25.04 -0.5 31.1 47 -10.6 13 0
11:05 1019 30.09 848 25.04 -0.5 31 48 -10.3 13.4 0
11:06 1019 30.09 848 25.04 -0.6 30.9 46 -10.8 12.5 0
11:07 1019 30.09 848 25.04 -0.6 30.8 47 -10.7 12.7 0
11:08 1019 30.09 848 25.04 -0.5 31 46 -10.8 12.6 0
11:09 1019 30.09 848 25.04 -0.5 31 46 -10.7 12.8 0
11:10 1019 30.09 848 25.04 -0.5 31.1 46 -10.7 12.7 0
11:11 1019 30.09 848 25.04 -0.4 31.3 46 -10.7 12.7 0
11:12 1019 30.09 848 25.04 -0.2 31.6 48 -9.8 14.3 0
11:13 1019 30.09 848 25.04 -0.1 31.8 48 -9.9 14.1 0
11:14 1019 30.09 848 25.04 -0.2 31.7 47 -10.2 13.6 0
11:15 1019 30.09 848 25.04 -0.2 31.6 49 -9.7 14.6 0
11:16 1019 30.09 848 25.04 -0.3 31.4 53 -8.7 16.3 0
11:17 1019 30.09 848 25.04 -0.2 31.6 49 -9.6 14.8 0
11:18 1019 30.09 848 25.04 -0.1 31.8 48 -9.9 14.2 0
11:19 1019 30.09 848 25.04 -0.2 31.6 49 -9.6 14.8 0
11:20 1019 30.09 848 25.04 -0.2 31.6 52 -9 15.8 0
11:21 1019 30.09 848 25.04 -0.2 31.6 46 -10.4 13.3 0
11:22 1019 30.09 848 25.04 -0.3 31.5 47 -10.4 13.3 0
11:23 1019 30.09 848 25.04 -0.3 31.5 52 -8.9 16 0
11:24 1019 30.09 848 25.04 -0.2 31.6 49 -9.8 14.4 0
11:25 1019 30.09 848 25.04 -0.2 31.7 45 -10.8 12.6 0
11:26 1019 30.09 848 25.04 -0.1 31.9 47 -10.1 13.8 0
11:27 1019 30.09 848 25.04 0.1 32.2 47 -9.8 14.4 0
11:28 1019 30.09 848 25.04 0.2 32.3 48 -9.6 14.7 0
11:29 1019 30.09 848 25.04 0.2 32.4 50 -9.1 15.6 0
11:30 1019 30.09 848 25.04 0.2 32.4 46 -10.2 13.7 0
11:31 1019 30.09 848 25.04 0.2 32.3 44 -10.7 12.8 0
11:32 1019 30.09 848 25.04 0.1 32.1 47 -10.1 13.9 0
11:33 1019 30.09 848 25.04 0 32.1 50 -9.1 15.7 0
11:34 1019 30.09 848 25.04 0.3 32.5 48 -9.5 14.9 0
11:35 1019 30.09 848 25.04 0.3 32.6 45 -10.2 13.7 0
11:36 1019 30.09 848 25.04 0.2 32.4 53 -8.3 17.1 0
11:37 1019 30.09 848 25.04 0.3 32.6 49 -9.1 15.7 0
11:38 1019 30.09 848 25.04 0.5 32.9 52 -8.2 17.3 0
11:39 1019 30.09 848 25.04 0.5 32.8 52 -8.3 17.1 0
11:40 1019 30.09 848 25.04 0.4 32.6 52 -8.4 16.9 0
11:41 1019 30.09 848 25.04 0.1 32.2 51 -8.8 16.2 0
11:42 1019 30.09 848 25.04 -0.1 31.9 50 -9.4 15.1 0
11:43 1019 30.09 848 25.04 -0.3 31.4 49 -9.8 14.3 0
11:44 1019 30.09 848 25.04 -0.5 31.1 50 -9.7 14.5 0
11:45 1019 30.09 848 25.04 -0.6 31 47 -10.5 13.1 0
11:46 1019 30.09 848 25.04 -0.5 31.1 50 -9.7 14.5 0
11:47 1019 30.09 848 25.04 -0.4 31.2 47 -10.5 13 0
11:48 1019 30.09 848 25.04 -0.4 31.3 52 -9 15.8 0
11:49 1019 30.09 848 25.04 -0.3 31.5 47 -10.3 13.4 0
11:50 1019 30.09 848 25.04 -0.2 31.6 49 -9.6 14.7 0
11:51 1019 30.09 848 25.04 -0.3 31.5 50 -9.5 14.9 0
11:52 1019 30.09 848 25.04 -0.3 31.5 53 -8.9 16.1 0
11:53 1019 30.09 848 25.04 -0.2 31.6 46 -10.4 13.3 0
11:54 1019 30.09 848 25.04 -0.2 31.6 52 -9.1 15.7 0
11:55 1019 30.09 848 25.04 -0.1 31.8 48 -10 14 0
11:56 1019 30.09 848 25.04 0.1 32.1 47 -9.8 14.3 0
11:57 1019 30.09 848 25.04 0 32.1 50 -9.2 15.4 0
11:58 1019 30.09 848 25.04 0 32 48 -9.7 14.6 0
11:59 1019 30.09 848 25.04 0.1 32.1 48 -9.8 14.4 0
12:00 1019 30.09 848 25.04 0 32 49 -9.4 15.1 0
12:01 1019 30.09 848 25.04 0.1 32.2 47 -10 13.9 0
12:02 1019 30.09 848 25.04 0.1 32.2 50 -9.2 15.4 0
12:03 1019 30.09 848 25.04 0.1 32.2 55 -8 17.7 0
12:04 1019 30.09 848 25.04 0.2 32.3 47 -9.8 14.3 0
12:05 1019 30.09 848 25.04 0.2 32.4 48 -9.4 15 0
12:06 1019 30.09 848 25.04 0.3 32.6 48 -9.5 14.8 0
12:07 1019 30.09 848 25.04 0.4 32.7 48 -9.4 15 0
12:08 1019 30.09 848 25.04 0.6 33.1 44 -10.3 13.5 0
12:09 1019 30.09 848 25.04 0.6 33.1 45 -10.1 13.9 0
12:10 1019 30.09 848 25.04 0.6 33.1 44 -10.2 13.7 0
12:11 1019 30.09 848 25.04 0.7 33.2 46 -9.8 14.4 0
12:12 1019 30.09 848 25.04 0.7 33.3 45 -9.8 14.3 0
12:13 1019 30.09 848 25.04 0.6 33.2 45 -10 14.1 0
12:14 1019 30.09 848 25.04 0.6 33.1 53 -7.9 17.7 0
12:15 1019 30.09 848 25.04 0.8 33.4 50 -8.6 16.6 0
12:16 1019 30.09 848 25.04 0.9 33.6 50 -8.5 16.8 0
12:17 1019 30.09 848 25.04 0.8 33.5 49 -8.8 16.2 0
12:18 1019 30.09 848 25.04 0.9 33.5 42 -10.6 13 0
12:19 1018 30.06 848 25.04 0.7 33.3 44 -10.1 13.7 0
12:20 1019 30.09 848 25.04 0.7 33.3 47 -9.3 15.2 0
12:21 1019 30.09 848 25.04 0.9 33.6 42 -10.7 12.8 0
12:22 1019 30.09 848 25.04 1.1 34 44 -9.7 14.6 0
12:23 1018 30.06 848 25.04 1.3 34.4 43 -9.9 14.2 0
12:24 1018 30.06 848 25.04 1.4 34.6 43 -9.9 14.2 0
12:25 1018 30.06 848 25.04 1.4 34.5 42 -10.2 13.7 0
12:26 1018 30.06 848 25.04 1.4 34.5 53 -7.3 18.9 0
12:27 1018 30.06 848 25.04 1.3 34.4 42 -10.3 13.5 0
12:28 1018 30.06 848 25.04 1.1 34.1 43 -10.1 13.7 0
12:29 1018 30.06 848 25.04 1.2 34.2 45 -9.5 14.9 0
12:30 1018 30.06 848 25.04 1.3 34.4 49 -8.2 17.2 0
12:31 1018 30.06 847 25.01 1.4 34.5 47 -8.7 16.3 0
12:32 1018 30.06 848 25.04 1.4 34.4 45 -9.3 15.2 0
12:33 1018 30.06 848 25.04 1.3 34.3 43 -10 14.1 0
12:34 1018 30.06 847 25.01 1.1 34 47 -9 15.8 0
12:35 1018 30.06 848 25.04 1.2 34.1 48 -8.6 16.5 0
12:36 1018 30.06 848 25.04 1.4 34.4 46 -9 15.7 0
12:37 1018 30.06 847 25.01 1.5 34.7 46 -9 15.8 0
12:38 1018 30.06 847 25.01 1.3 34.4 44 -9.5 14.9 0
12:39 1018 30.06 847 25.01 1.1 34 43 -10.1 13.8 0
12:40 1018 30.06 847 25.01 1.1 34 43 -10.2 13.6 0
12:41 1018 30.06 847 25.01 1.2 34.2 45 -9.6 14.8 0
12:42 1018 30.06 847 25.01 1.3 34.3 42 -10.1 13.7 0
12:43 1018 30.06 847 25.01 1.3 34.4 44 -9.6 14.7 0
12:44 1018 30.06 847 25.01 1.3 34.3 43 -10.1 13.9 0
12:45 1018 30.06 847 25.01 1.2 34.2 44 -9.8 14.4 0
12:46 1018 30.06 847 25.01 1.2 34.2 41 -10.7 12.7 0
12:47 1018 30.06 847 25.01 1.2 34.2 45 -9.4 15.2 0
12:48 1018 30.06 847 25.01 1.3 34.3 41 -10.5 13.1 0
12:49 1018 30.06 847 25.01 1.4 34.5 43 -9.9 14.2 0
12:50 1018 30.06 847 25.01 1.5 34.6 45 -9.3 15.3 0
12:51 1018 30.06 847 25.01 1.6 34.8 41 -10.2 13.6 0
12:52 1018 30.06 847 25.01 1.6 34.8 49 -8 17.6 0
12:53 1018 30.06 847 25.01 1.8 35.2 48 -8 17.5 0
12:54 1018 30.06 847 25.01 1.8 35.2 42 -9.8 14.4 0
12:55 1018 30.06 847 25.01 1.6 35 40 -10.5 13.1 0
12:56 1018 30.06 847 25.01 1.5 34.6 45 -9.1 15.6 0
12:57 1018 30.06 847 25.01 1.4 34.5 44 -9.5 15 0
12:58 1018 30.06 847 25.01 1.3 34.4 45 -9.4 15.1 0
12:59 1018 30.06 847 25.01 1.3 34.3 43 -10 14 0
13:00 1018 30.06 847 25.01 1.3 34.3 47 -8.9 16 0
13:01 1018 30.06 847 25.01 1.5 34.6 46 -9 15.8 0
13:02 1018 30.06 847 25.01 1.7 35 40 -10.5 13.1 0
13:03 1018 30.06 847 25.01 1.7 35 46 -8.7 16.4 0
13:04 1018 30.06 847 25.01 1.8 35.3 47 -8.3 17 0
13:05 1018 30.06 847 25.01 1.9 35.4 44 -9 15.8 0
13:06 1018 30.06 847 25.01 1.8 35.2 41 -10.1 13.9 0
13:07 1018 30.06 847 25.01 1.6 34.9 46 -8.9 16 0
13:08 1018 30.06 847 25.01 1.5 34.7 43 -9.9 14.2 0
13:09 1018 30.06 847 25.01 1.7 35 45 -8.9 16 0
13:10 1018 30.06 847 25.01 1.9 35.5 46 -8.5 16.6 0
13:11 1018 30.06 847 25.01 2 35.5 45 -8.8 16.2 0
13:12 1018 30.06 847 25.01 2 35.6 42 -9.5 14.8 0
13:13 1018 30.06 847 25.01 2.2 35.9 41 -9.8 14.4 0
13:14 1018 30.06 847 25.01 2.2 35.9 49 -7.4 18.8 0
13:15 1018 30.06 847 25.01 2.2 36 42 -9.3 15.2 0
13:16 1018 30.06 847 25.01 2.1 35.7 39 -10.4 13.2 0
13:17 1018 30.06 847 25.01 1.9 35.4 44 -9.1 15.5 0
13:18 1018 30.06 847 25.01 2 35.5 48 -7.8 17.9 0
13:19 1018 30.06 847 25.01 2 35.6 47 -8.2 17.3 0
13:20 1018 30.06 847 25.01 1.8 35.3 49 -7.7 18.2 0
13:21 1018 30.06 847 25.01 1.7 35.1 47 -8.3 17.1 0
13:22 1018 30.06 847 25.01 1.6 34.8 45 -9.2 15.4 0
13:23 1018 30.06 847 25.01 1.4 34.6 46 -9.1 15.7 0
13:24 1018 30.06 847 25.01 1.4 34.6 46 -9.1 15.6 0
13:25 1018 30.06 847 25.01 1.6 34.8 44 -9.3 15.2 0
13:26 1018 30.06 847 25.01 1.6 34.9 45 -9.2 15.5 0
13:27 1018 30.06 847 25.01 1.8 35.3 52 -7.1 19.2 0
13:28 1018 30.06 847 25.01 2 35.7 43 -9.4 15.1 0
13:29 1018 30.06 847 25.01 1.9 35.4 43 -9.4 15 0
13:30 1018 30.06 847 25.01 1.9 35.4 45 -8.8 16.2 0
13:31 1018 30.06 847 25.01 1.8 35.3 45 -8.8 16.1 0
13:32 1018 30.06 847 25.01 1.8 35.3 42 -9.8 14.3 0
13:33 1018 30.06 847 25.01 1.9 35.4 43 -9.4 15 0
13:34 1018 30.06 847 25.01 1.9 35.4 43 -9.4 15.1 0
13:35 1018 30.06 847 25.01 2 35.5 43 -9.3 15.3 0
13:36 1018 30.06 847 25.01 1.9 35.5 43 -9.2 15.4 0
13:37 1018 30.06 847 25.01 1.9 35.5 45 -8.9 16 0
13:38 1018 30.06 847 25.01 1.9 35.5 41 -9.9 14.3 0
13:39 1018 30.06 847 25.01 1.9 35.5 42 -9.7 14.5 0
13:40 1018 30.06 847 25.01 2.1 35.8 44 -9 15.9 0
13:41 1018 30.06 847 25.01 2.3 36.2 45 -8.5 16.8 0
13:42 1018 30.06 847 25.01 2.4 36.3 43 -8.8 16.1 0
13:43 1018 30.06 847 25.01 2.4 36.3 45 -8.5 16.7 0
13:44 1018 30.06 847 25.01 2.3 36.2 42 -9.2 15.5 0
13:45 1018 30.06 847 25.01 2.4 36.3 44 -8.5 16.6 0
13:46 1018 30.06 847 25.01 2.5 36.4 46 -7.9 17.7 0
13:47 1018 30.06 847 25.01 2.5 36.4 41 -9.5 14.9 0
13:48 1018 30.06 847 25.01 2.3 36.2 43 -9 15.8 0
13:49 1018 30.06 847 25.01 2.4 36.3 42 -9.3 15.3 0
13:50 1018 30.06 847 25.01 2.5 36.4 48 -7.4 18.6 0
13:51 1018 30.06 847 25.01 2.6 36.7 46 -7.9 17.7 0
13:52 1018 30.06 847 25.01 2.7 36.8 49 -6.9 19.5 0
13:53 1018 30.06 847 25.01 2.8 37.1 45 -7.9 17.8 0
13:54 1018 30.06 847 25.01 2.9 37.3 44 -8.1 17.4 0
13:55 1018 30.06 847 25.01 2.9 37.2 41 -9 15.9 0
13:56 1018 30.06 847 25.01 3 37.3 45 -7.8 17.9 0
13:57 1018 30.06 847 25.01 2.9 37.3 41 -8.9 16 0
13:58 1018 30.06 847 25.01 2.7 36.9 41 -9.2 15.4 0
13:59 1018 30.06 847 25.01 2.5 36.6 44 -8.5 16.6 0
14:00 1018 30.06 847 25.01 2.6 36.8 41 -9.3 15.2 0
14:01 1018 30.06 847 25.01 2.7 36.9 41 -9.4 15.2 0
14:02 1018 30.06 847 25.01 2.8 37 40 -9.5 14.8 0
14:03 1018 30.06 847 25.01 2.5 36.5 43 -8.8 16.1 0
14:04 1018 30.06 847 25.01 2.4 36.3 40 -9.8 14.4 0
14:05 1018 30.06 847 25.01 2.3 36.2 42 -9.4 15.1 0
14:06 1018 30.06 847 25.01 2.4 36.3 41 -9.7 14.5 0
14:07 1018 30.06 847 25.01 2.5 36.6 40 -9.8 14.3 0
14:08 1018 30.06 847 25.01 2.7 36.8 41 -9.4 15.1 0
14:09 1018 30.06 847 25.01 2.7 36.9 43 -8.7 16.4 0
14:10 1018 30.06 847 25.01 2.7 36.9 50 -6.7 20 0
14:11 1018 30.06 847 25.01 2.8 37.1 45 -8 17.7 0
14:12 1018 30.06 847 25.01 2.7 36.8 46 -7.7 18.1 0
14:13 1018 30.06 847 25.01 2.7 36.8 42 -8.9 15.9 0
14:14 1017 30.03 847 25.01 2.6 36.7 53 -6.1 21 0
14:15 1017 30.03 847 25.01 2.9 37.1 52 -6 21.2 0
14:16 1018 30.06 847 25.01 3.2 37.7 52 -5.7 21.8 0
14:17 1018 30.06 847 25.01 3.3 38 44 -7.7 18.2 0
14:18 1018 30.06 847 25.01 3.3 38 45 -7.5 18.6 0
14:19 1018 30.06 847 25.01 3.3 37.9 42 -8.4 16.8 0
14:20 1018 30.06 847 25.01 3.2 37.8 41 -8.7 16.4 0
14:21 1018 30.06 847 25.01 3.2 37.8 41 -8.9 16 0
14:22 1017 30.03 847 25.01 3.1 37.6 47 -7 19.3 0
14:23 1017 30.03 847 25.01 3.2 37.8 42 -8.3 17 0
14:24 1017 30.03 847 25.01 3.1 37.7 46 -7.3 18.8 0
14:25 1017 30.03 847 25.01 3 37.4 47 -7.2 19 0
14:26 1017 30.03 847 25.01 2.9 37.2 44 -8.1 17.4 0
14:27 1017 30.03 847 25.01 2.9 37.2 50 -6.5 20.2 0
14:28 1017 30.03 847 25.01 2.9 37.3 44 -8.1 17.5 0
14:29 1017 30.03 847 25.01 3 37.4 47 -7.4 18.8 0
14:30 1017 30.03 847 25.01 3.1 37.6 43 -8.4 16.9 0
14:31 1017 30.03 847 25.01 3.3 37.9 45 -7.6 18.4 0
14:32 1017 30.03 847 25.01 3.3 37.9 45 -7.6 18.3 0
14:33 1017 30.03 847 25.01 3.1 37.6 42 -8.4 16.8 0
14:34 1017 30.03 847 25.01 3.1 37.6 51 -6.2 20.9 0
14:35 1017 30.03 847 25.01 3.1 37.6 47 -7 19.3 0
14:36 1017 30.03 846 24.98 3 37.5 47 -7.3 18.8 0
14:37 1017 30.03 847 25.01 3.1 37.5 43 -8.3 17.1 0
14:38 1017 30.03 847 25.01 3.1 37.6 45 -7.6 18.3 0
14:39 1017 30.03 846 24.98 3 37.5 45 -7.7 18.1 0
14:40 1017 30.03 846 24.98 2.8 37.1 43 -8.6 16.6 0
14:41 1017 30.03 846 24.98 2.8 37 49 -7 19.4 0
14:42 1017 30.03 847 25.01 2.8 37.1 48 -7.1 19.2 0
14:43 1017 30.03 847 25.01 2.8 37.1 47 -7.4 18.6 0
14:44 1017 30.03 846 24.98 2.9 37.1 46 -7.7 18.1 0
14:45 1017 30.03 846 24.98 2.9 37.2 42 -8.7 16.3 0
14:46 1017 30.03 846 24.98 2.9 37.3 44 -8 17.5 0
14:47 1017 30.03 846 24.98 3.1 37.5 49 -6.6 20.1 0
14:48 1017 30.03 846 24.98 3.3 38 43 -8 17.6 0
14:49 1017 30.03 846 24.98 3.3 38 41 -8.8 16.2 0
14:50 1017 30.03 846 24.98 3.3 38 44 -7.8 18 0
14:51 1017 30.03 846 24.98 3.4 38.1 53 -5.3 22.4 0
14:52 1017 30.03 846 24.98 3.6 38.4 46 -6.9 19.6 0
14:53 1017 30.03 846 24.98 3.4 38.2 44 -7.8 17.9 0
14:54 1017 30.03 846 24.98 3.2 37.8 49 -6.4 20.5 0
14:55 1017 30.03 846 24.98 3.3 37.9 46 -7.2 19 0
14:56 1017 30.03 846 24.98 3.3 37.9 45 -7.6 18.3 0
14:57 1017 30.03 846 24.98 3.3 37.9 45 -7.5 18.5 0
14:58 1017 30.03 846 24.98 3.3 37.9 42 -8.6 16.6 0
14:59 1017 30.03 846 24.98 3.3 38 43 -8 17.5 0
15:00 1017 30.03 846 24.98 3.4 38.1 44 -7.6 18.3 0
15:01 1017 30.03 846 24.98 3.6 38.4 40 -8.7 16.3 0
15:02 1017 30.03 846 24.98 3.4 38.1 48 -6.5 20.4 0
15:03 1017 30.03 846 24.98 3.3 38 43 -8 17.6 0
15:04 1017 30.03 846 24.98 3.3 38 47 -6.8 19.7 0
15:05 1017 30.03 846 24.98 3.5 38.4 48 -6.5 20.3 0
15:06 1017 30.03 846 24.98 3.5 38.4 48 -6.4 20.4 0
15:07 1017 30.03 846 24.98 3.6 38.5 45 -7.2 19.1 0
15:08 1017 30.03 846 24.98 3.6 38.6 42 -8.1 17.4 0
15:09 1017 30.03 846 24.98 3.6 38.5 48 -6.3 20.6 0
15:10 1017 30.03 846 24.98 3.7 38.7 50 -5.8 21.6 0
15:11 1017 30.03 846 24.98 3.8 38.9 46 -6.9 19.6 0
15:12 1017 30.03 846 24.98 3.9 39 43 -7.6 18.4 0
15:13 1017 30.03 846 24.98 3.8 38.9 49 -6 21.2 0
15:14 1017 30.03 846 24.98 3.7 38.7 43 -7.6 18.4 0
15:15 1017 30.03 846 24.98 3.6 38.5 47 -6.8 19.8 0
15:16 1017 30.03 846 24.98 3.7 38.6 47 -6.5 20.4 0
15:17 1017 30.03 846 24.98 3.8 38.9 51 -5.5 22.2 0
15:18 1017 30.03 846 24.98 4 39.2 45 -6.8 19.8 0
15:19 1017 30.03 846 24.98 4.1 39.3 51 -5.1 22.8 0
15:20 1017 30.03 846 24.98 4.1 39.3 40 -8.3 17.1 0
15:21 1017 30.03 846 24.98 4 39.2 46 -6.5 20.3 0
15:22 1017 30.03 846 24.98 4 39.2 48 -6.1 20.9 0
15:23 1017 30.03 846 24.98 4 39.2 46 -6.6 20.2 0
15:24 1017 30.03 846 24.98 3.9 38.9 46 -6.9 19.6 0
15:25 1017 30.03 846 24.98 3.8 38.8 42 -8.2 17.3 0
15:26 1017 30.03 846 24.98 3.7 38.7 40 -8.7 16.3 0
15:27 1017 30.03 846 24.98 3.8 38.8 40 -8.5 16.6 0
15:28 1017 30.03 846 24.98 3.9 39 42 -7.9 17.7 0
15:29 1017 30.03 846 24.98 4 39.1 42 -7.7 18.1 0
15:30 1017 30.03 846 24.98 4 39.2 42 -7.9 17.8 0
15:31 1017 30.03 846 24.98 4.1 39.3 52 -4.9 23.2 0
15:32 1017 30.03 846 24.98 4.1 39.4 51 -5.1 22.8 0
15:33 1017 30.03 846 24.98 4.2 39.6 40 -8.2 17.3 0
15:34 1017 30.03 846 24.98 4 39.3 40 -8.4 16.9 0
15:35 1017 30.03 846 24.98 3.8 38.8 42 -7.8 17.9 0
15:36 1017 30.03 846 24.98 3.7 38.7 44 -7.3 18.8 0
15:37 1017 30.03 846 24.98 3.8 38.9 46 -6.7 19.9 0
15:38 1017 30.03 846 24.98 4 39.2 47 -6.3 20.7 0
15:39 1017 30.03 846 24.98 4 39.2 45 -6.9 19.6 0
15:40 1017 30.03 846 24.98 4 39.2 48 -5.9 21.3 0
15:41 1017 30.03 846 24.98 4 39.2 50 -5.4 22.2 0
15:42 1017 30.03 846 24.98 4 39.2 40 -8.4 16.9 0
15:43 1017 30.03 846 24.98 3.8 38.9 47 -6.6 20.2 0
15:44 1017 30.03 846 24.98 3.9 39 46 -6.7 20 0
15:45 1017 30.03 846 24.98 4 39.2 46 -6.7 19.9 0
15:46 1017 30.03 846 24.98 3.8 38.9 46 -6.7 19.9 0
15:47 1017 30.03 846 24.98 3.8 38.8 42 -7.8 17.9 0
15:48 1017 30.03 846 24.98 3.8 38.9 44 -7.5 18.5 0
15:49 1017 30.03 846 24.98 3.8 38.9 44 -7.3 18.9 0
15:50 1017 30.03 846 24.98 4 39.2 46 -6.7 20 0
15:51 1017 30.03 846 24.98 4.1 39.3 43 -7.4 18.8 0
15:52 1017 30.03 846 24.98 3.9 39.1 43 -7.6 18.4 0
15:53 1017 30.03 846 24.98 3.8 38.9 45 -7.1 19.3 0
15:54 1017 30.03 846 24.98 3.7 38.6 42 -8.2 17.3 0
15:55 1017 30.03 846 24.98 3.7 38.6 48 -6.2 20.8 0
15:56 1017 30.03 846 24.98 3.8 38.8 47 -6.7 20 0
15:57 1017 30.03 846 24.98 3.8 38.8 48 -6.2 20.8 0
15:58 1017 30.03 846 24.98 3.9 39.1 41 -8.1 17.4 0
15:59 1017 30.03 846 24.98 3.8 38.9 46 -6.7 19.9 0
16:00 1017 30.03 846 24.98 3.9 39 48 -6.2 20.9 0
16:01 1017 30.03 846 24.98 4 39.2 44 -7.2 19 0
16:02 1017 30.03 846 24.98 3.8 38.8 50 -5.6 22 0
16:03 1017 30.03 846 24.98 3.7 38.7 53 -5.1 22.8 0
16:04 1017 30.03 846 24.98 3.8 38.9 45 -7 19.4 0
16:05 1017 30.03 846 24.98 3.9 39 42 -7.8 18 0
16:06 1017 30.03 846 24.98 4 39.1 42 -7.9 17.7 0
16:07 1017 30.03 846 24.98 3.9 39.1 43 -7.5 18.5 0
16:08 1017 30.03 846 24.98 3.9 39.1 50 -5.6 21.9 0
16:09 1017 30.03 846 24.98 4.1 39.4 43 -7.3 18.9 0
16:10 1017 30.03 846 24.98 4.1 39.4 47 -6.2 20.9 0
16:11 1017 30.03 846 24.98 4.2 39.6 46 -6.2 20.8 0
16:12 1017 30.03 846 24.98 4.3 39.7 43 -7.2 19.1 0
16:13 1017 30.03 846 24.98 4.4 39.9 44 -6.9 19.7 0
16:14 1017 30.03 846 24.98 4.3 39.8 43 -7.3 18.9 0
16:15 1017 30.03 846 24.98 4.1 39.4 41 -8.1 17.4 0
16:16 1017 30.03 846 24.98 4 39.1 41 -8.2 17.3 0
16:17 1017 30.03 846 24.98 3.9 39 46 -6.8 19.8 0
16:18 1017 30.03 846 24.98 3.8 38.9 49 -5.9 21.3 0
16:19 1017 30.03 846 24.98 3.8 38.9 48 -6.3 20.7 0
16:20 1017 30.03 846 24.98 3.9 39 42 -7.9 17.7 0
16:21 1017 30.03 846 24.98 3.8 38.8 48 -6.3 20.7 0
16:22 1017 30.03 846 24.98 3.9 39 50 -5.5 22.1 0
16:23 1017 30.03 846 24.98 4.1 39.4 47 -6.3 20.7 0
16:24 1017 30.03 846 24.98 4.2 39.5 41 -8 17.6 0
16:25 1017 30.03 846 24.98 4.1 39.4 47 -6.1 21 0
16:26 1017 30.03 846 24.98 4.1 39.3 43 -7.4 18.7 0
16:27 1017 30.03 846 24.98 4 39.1 44 -7.1 19.1 0
16:28 1016 30 846 24.98 4 39.1 38 -8.9 15.9 0
16:29 1017 30.03 846 24.98 3.9 39.1 49 -5.9 21.3 0
16:30 1017 30.03 846 24.98 4 39.2 41 -8 17.6 0
16:31 1016 30 846 24.98 3.9 39 42 -7.8 17.9 0
16:32 1016 30 846 24.98 3.8 38.9 38 -9.2 15.5 0
16:33 1017 30.03 846 24.98 3.8 38.9 43 -7.8 18 0
16:34 1017 30.03 846 24.98 4 39.2 41 -8 17.5 0
16:35 1016 30 846 24.98 4.1 39.3 42 -7.7 18.2 0
16:36 1016 30 846 24.98 4.1 39.4 45 -6.7 19.9 0
16:37 1016 30 846 24.98 4.1 39.5 41 -7.9 17.7 0
16:38 1016 30 846 24.98 4 39.3 41 -7.9 17.7 0
16:39 1016 30 846 24.98 3.9 39 42 -7.8 17.9 0
16:40 1016 30 846 24.98 3.8 38.8 41 -8.3 17.1 0
16:41 1016 30 846 24.98 3.8 38.8 45 -7 19.4 0
16:42 1017 30.03 846 24.98 3.9 39 47 -6.4 20.5 0
16:43 1016 30 846 24.98 3.9 39 44 -7.4 18.8 0
16:44 1016 30 846 24.98 3.9 39 43 -7.7 18.2 0
16:45 1017 30.03 846 24.98 3.9 38.9 45 -7.1 19.3 0
16:46 1017 30.03 846 24.98 4 39.2 47 -6.4 20.4 0
16:47 1017 30.03 846 24.98 4.1 39.5 46 -6.4 20.5 0
16:48 1016 30 846 24.98 4.2 39.6 41 -7.8 18 0
16:49 1016 30 846 24.98 4.2 39.5 42 -7.6 18.3 0
16:50 1017 30.03 846 24.98 4 39.2 43 -7.4 18.6 0
16:51 1016 30 846 24.98 3.9 39 44 -7.3 18.9 0
16:52 1017 30.03 846 24.98 3.9 39 42 -7.8 17.9 0
16:53 1017 30.03 846 24.98 3.9 39 42 -7.9 17.8 0
16:54 1017 30.03 846 24.98 3.9 39.1 39 -8.9 16 0
16:55 1017 30.03 846 24.98 3.9 39.1 44 -7.3 18.9 0
16:56 1017 30.03 846 24.98 4 39.3 43 -7.4 18.6 0
16:57 1017 30.03 846 24.98 4.1 39.4 38 -9 15.8 0
16:58 1017 30.03 846 24.98 4.1 39.4 43 -7.4 18.6 0
16:59 1017 30.03 846 24.98 4.1 39.3 40 -8.3 17 0
17:00 1017 30.03 846 24.98 4.1 39.3 41 -7.9 17.8 0
17:01 1017 30.03 846 24.98 4 39.3 41 -8.1 17.5 0
17:02 1017 30.03 846 24.98 4.2 39.5 45 -6.8 19.7 0
17:03 1017 30.03 846 24.98 4.3 39.7 42 -7.6 18.4 0
17:04 1017 30.03 846 24.98 4.3 39.7 40 -8.3 17.1 0
17:05 1017 30.03 846 24.98 4.3 39.7 43 -7.1 19.2 0
17:06 1017 30.03 846 24.98 4.3 39.8 40 -8.1 17.5 0
17:07 1017 30.03 846 24.98 4.2 39.6 37 -9.1 15.6 0
17:08 1017 30.03 846 24.98 4.2 39.5 43 -7.4 18.6 0
17:09 1017 30.03 846 24.98 4.2 39.6 37 -9.2 15.5 0
17:10 1016 30 846 24.98 4.3 39.7 39 -8.3 17 0
17:11 1017 30.03 846 24.98 4.4 39.9 36 -9.3 15.2 0
17:12 1017 30.03 846 24.98 4.4 40 36 -9.5 14.9 0
17:13 1017 30.03 846 24.98 4.6 40.3 36 -9.3 15.3 0
17:14 1017 30.03 846 24.98 4.7 40.4 38 -8.5 16.7 0
17:15 1016 30 846 24.98 4.7 40.4 44 -6.6 20.1 0
17:16 1016 30 846 24.98 4.5 40 40 -7.9 17.8 0
17:17 1016 30 846 24.98 4.2 39.5 41 -8.1 17.5 0
17:18 1016 30 846 24.98 4.1 39.4 46 -6.5 20.3 0
17:19 1016 30 846 24.98 4.2 39.6 38 -8.9 16 0
17:20 1016 30 846 24.98 4.2 39.5 40 -8.2 17.3 0
17:21 1016 30 846 24.98 4.2 39.5 37 -9.4 15.2 0
17:22 1016 30 846 24.98 4.2 39.6 37 -9.2 15.4 0
17:23 1016 30 846 24.98 4.2 39.5 38 -9.1 15.6 0
17:24 1016 30 846 24.98 4.1 39.4 38 -8.9 15.9 0
17:25 1016 30 846 24.98 4.1 39.4 39 -8.7 16.3 0
17:26 1016 30 846 24.98 4.2 39.5 36 -9.5 14.8 0
17:27 1016 30 846 24.98 4.2 39.6 40 -8.1 17.5 0
17:28 1016 30 846 24.98 4.5 40 37 -9 15.8 0
17:29 1016 30 846 24.98 4.5 40.2 38 -8.6 16.5 0
17:30 1016 30 846 24.98 4.4 39.9 40 -8.1 17.4 0
17:31 1016 30 846 24.98 4.3 39.7 36 -9.5 15 0
17:32 1016 30 846 24.98 4.2 39.6 41 -8 17.5 0
17:33 1016 30 846 24.98 4.3 39.7 36 -9.7 14.6 0
17:34 1016 30 846 24.98 4.1 39.5 37 -9.3 15.3 0
17:35 1016 30 846 24.98 4.1 39.4 37 -9.3 15.3 0
17:36 1016 30 846 24.98 4.3 39.7 37 -9.3 15.2 0
17:37 1016 30 846 24.98 4.4 39.9 35 -9.7 14.6 0
17:38 1016 30 846 24.98 4.5 40.1 37 -9.1 15.6 0
17:39 1016 30 846 24.98 4.6 40.3 38 -8.6 16.6 0
17:40 1016 30 846 24.98 4.8 40.6 38 -8.5 16.8 0
17:41 1016 30 846 24.98 5 41.1 35 -9.2 15.5 0
17:42 1016 30 846 24.98 5.1 41.1 37 -8.5 16.8 0
17:43 1016 30 846 24.98 5 41.1 37 -8.6 16.6 0
17:44 1016 30 846 24.98 5 40.9 39 -7.8 17.9 0
17:45 1016 30 846 24.98 4.9 40.8 39 -7.8 17.9 0
17:46 1016 30 846 24.98 4.9 40.7 38 -8.3 17 0
17:47 1016 30 846 24.98 4.8 40.7 39 -8 17.6 0
17:48 1016 30 846 24.98 4.9 40.8 37 -8.6 16.5 0
17:49 1016 30 846 24.98 4.9 40.8 38 -8.1 17.4 0
17:50 1016 30 846 24.98 4.9 40.9 38 -8.3 17 0
17:51 1016 30 846 24.98 4.9 40.9 40 -7.7 18.1 0
17:52 1016 30 846 24.98 4.9 40.8 36 -9.1 15.7 0
17:53 1016 30 846 24.98 4.9 40.8 36 -9 15.8 0
17:54 1016 30 846 24.98 4.9 40.9 35 -9.4 15 0
17:55 1016 30 846 24.98 4.9 40.9 34 -9.5 14.9 0
17:56 1016 30 846 24.98 4.9 40.8 35 -9.2 15.5 0
17:57 1016 30 845 24.95 4.7 40.5 35 -9.4 15.1 0
17:58 1016 30 846 24.98 4.6 40.2 38 -8.7 16.4 0
17:59 1016 30 846 24.98 4.5 40.1 40 -8.1 17.5 0
18:00 1016 30 846 24.98 4.4 39.8 38 -8.6 16.5 0
18:01 1016 30 846 24.98 4.2 39.5 40 -8.1 17.4 0
18:02 1016 30 845 24.95 4 39.1 41 -8.1 17.4 0
18:03 1016 30 845 24.95 3.7 38.7 38 -9.4 15.1 0
18:04 1016 30 845 24.95 3.6 38.4 38 -9.5 14.8 0
18:05 1016 30 846 24.98 3.5 38.3 37 -9.7 14.5 0
18:06 1016 30 846 24.98 3.5 38.3 38 -9.6 14.8 0
18:07 1016 30 845 24.95 3.5 38.3 38 -9.4 15.1 0
18:08 1016 30 845 24.95 3.5 38.3 42 -8.2 17.2 0
18:09 1016 30 845 24.95 3.5 38.4 43 -7.9 17.7 0
18:10 1016 30 845 24.95 3.5 38.3 40 -8.9 16 0
18:11 1016 30 846 24.98 3.4 38.2 39 -9.2 15.4 0
18:12 1016 30 846 24.98 3.4 38.1 40 -8.9 16.1 0
18:13 1016 30 846 24.98 3.4 38 40 -9.1 15.7 0
18:14 1016 30 846 24.98 3.3 38 42 -8.4 16.8 0
18:15 1016 30 846 24.98 3.3 37.9 43 -8.2 17.2 0
18:16 1016 30 846 24.98 3.3 38 41 -8.6 16.6 0
18:17 1016 30 846 24.98 3.4 38 39 -9.2 15.5 0
18:18 1016 30 846 24.98 3.4 38.2 37 -9.8 14.3 0
18:19 1016 30 846 24.98 3.5 38.2 38 -9.6 14.7 0
18:20 1016 30 846 24.98 3.5 38.3 37 -10 14.1 0
18:21 1016 30 846 24.98 3.5 38.3 41 -8.6 16.5 0
18:22 1016 30 846 24.98 3.5 38.4 38 -9.4 15.1 0
18:23 1016 30 846 24.98 3.5 38.3 39 -9.2 15.5 0
18:24 1016 30 846 24.98 3.5 38.4 37 -10 14 0
18:25 1016 30 846 24.98 3.5 38.3 38 -9.7 14.6 0
18:26 1016 30 846 24.98 3.5 38.3 38 -9.5 14.8 0
18:27 1016 30 846 24.98 3.5 38.3 42 -8.2 17.3 0
18:28 1016 30 846 24.98 3.4 38.1 44 -7.8 18 0
18:29 1016 30 846 24.98 3.3 38 46 -7.3 18.8 0
18:30 1016 30 846 24.98 3.2 37.8 46 -7.3 18.8 0
18:31 1016 30 845 24.95 3.2 37.7 46 -7.2 19 0
18:32 1016 30 845 24.95 3.1 37.7 47 -7.2 19.1 0
18:33 1016 30 845 24.95 3.2 37.7 46 -7.3 18.8 0
18:34 1016 30 845 24.95 3.1 37.7 48 -6.9 19.5 0
18:35 1016 30 845 24.95 3.1 37.6 47 -7.1 19.2 0
18:36 1016 30 845 24.95 3.1 37.5 49 -6.7 19.9 0
18:37 1016 30 845 24.95 3.1 37.5 47 -7.3 18.9 0
18:38 1016 30 845 24.95 3 37.4 46 -7.4 18.6 0
18:39 1016 30 845 24.95 2.9 37.3 48 -7.2 19.1 0
18:40 1016 30 845 24.95 2.8 37.1 50 -6.6 20.1 0
18:41 1016 30 845 24.95 2.7 36.9 51 -6.4 20.4 0
18:42 1016 30 845 24.95 2.6 36.7 52 -6.3 20.6 0
18:43 1016 30 845 24.95 2.4 36.4 51 -6.7 19.9 0
18:44 1016 30 845 24.95 2.3 36.1 52 -6.7 20 0
18:45 1016 30 845 24.95 2.1 35.8 53 -6.5 20.2 0
18:46 1016 30 845 24.95 2 35.5 54 -6.4 20.4 0
18:47 1016 30 845 24.95 1.8 35.3 54 -6.5 20.2 0
18:48 1016 30 845 24.95 1.7 35.1 55 -6.3 20.6 0
18:49 1016 30 845 24.95 1.6 34.8 56 -6.3 20.6 0
18:50 1016 30 845 24.95 1.4 34.6 55 -6.5 20.2 0
18:51 1016 30 845 24.95 1.4 34.5 55 -6.8 19.8 0
18:52 1016 30 845 24.95 1.4 34.5 55 -6.7 19.9 0
18:53 1016 30 845 24.95 1.4 34.5 55 -6.7 20 0
18:54 1016 30 845 24.95 1.4 34.6 55 -6.5 20.2 0
18:55 1016 30 845 24.95 1.4 34.6 56 -6.4 20.5 0
18:56 1016 30 845 24.95 1.4 34.5 56 -6.3 20.6 0
18:57 1016 30 845 24.95 1.4 34.5 57 -6.3 20.7 0
18:58 1016 30 845 24.95 1.4 34.5 57 -6.3 20.7 0
18:59 1016 30 846 24.98 1.4 34.4 57 -6.3 20.7 0
19:00 1016 30 846 24.98 1.4 34.5 57 -6.3 20.7 0
19:01 1016 30 846 24.98 1.4 34.5 58 -6 21.2 0
19:02 1016 30 846 24.98 1.4 34.5 60 -5.6 21.9 0
19:03 1016 30 846 24.98 1.4 34.6 60 -5.4 22.2 0
19:04 1016 30 846 24.98 1.5 34.7 60 -5.4 22.3 0
19:05 1016 30 846 24.98 1.5 34.7 61 -5.3 22.5 0
19:06 1016 30 846 24.98 1.5 34.7 61 -5.3 22.4 0
19:07 1016 30 846 24.98 1.5 34.7 60 -5.4 22.3 0
19:08 1016 30 846 24.98 1.5 34.8 61 -5.2 22.6 0
19:09 1016 30 846 24.98 1.6 34.9 60 -5.3 22.5 0
19:10 1016 30 846 24.98 1.6 34.9 61 -5.2 22.6 0
19:11 1016 30 846 24.98 1.6 34.9 61 -5.1 22.8 0
19:12 1016 30 846 24.98 1.6 35 62 -5 23.1 0
19:13 1016 30 846 24.98 1.7 35.1 62 -4.9 23.2 0
19:14 1016 30 846 24.98 1.6 35 60 -5.2 22.6 0
19:15 1016 30 846 24.98 1.7 35 61 -5 23 0
19:16 1016 30 846 24.98 1.7 35 59 -5.5 22.2 0
19:17 1016 30 846 24.98 1.7 35 59 -5.5 22.1 0
19:18 1016 30 846 24.98 1.6 34.9 59 -5.5 22 0
19:19 1016 30 846 24.98 1.7 35 60 -5.3 22.5 0
19:20 1016 30 846 24.98 1.6 34.9 61 -5.1 22.9 0
19:21 1016 30 846 24.98 1.6 34.8 61 -5.1 22.9 0
19:22 1016 30 846 24.98 1.5 34.7 60 -5.3 22.4 0
19:23 1016 30 846 24.98 1.4 34.6 60 -5.5 22.1 0
19:24 1016 30 846 24.98 1.4 34.5 59 -5.7 21.7 0
19:25 1016 30 846 24.98 1.3 34.4 59 -5.8 21.6 0
19:26 1016 30 846 24.98 1.3 34.4 60 -5.6 21.9 0
19:27 1016 30 846 24.98 1.2 34.2 61 -5.6 22 0
19:28 1016 30 846 24.98 1.1 34 61 -5.6 21.9 0
19:29 1016 30 846 24.98 1 33.8 58 -6.3 20.6 0
19:30 1016 30 846 24.98 1 33.8 56 -6.7 19.9 0
19:31 1016 30 846 24.98 1.1 34.1 55 -6.9 19.6 0
19:32 1016 30 846 24.98 1.2 34.2 56 -6.7 20 0
19:33 1016 30 846 24.98 1.1 33.9 56 -6.7 19.9 0
19:34 1016 30 846 24.98 1 33.8 57 -6.6 20.1 0
19:35 1016 30 846 24.98 1 33.8 56 -6.8 19.7 0
19:36 1016 30 846 24.98 1.1 33.9 55 -7 19.3 0
19:37 1016 30 846 24.98 1.1 34 55 -7 19.4 0
19:38 1016 30 846 24.98 1.2 34.2 55 -6.8 19.8 0
19:39 1016 30 846 24.98 1.2 34.2 55 -6.9 19.7 0
19:40 1016 30 846 24.98 1.2 34.1 55 -6.9 19.7 0
19:41 1016 30 846 24.98 1.2 34.1 55 -6.8 19.8 0
19:42 1016 30 846 24.98 1.2 34.1 54 -7 19.3 0
19:43 1016 30 846 24.98 1.2 34.2 55 -6.8 19.7 0
19:44 1016 30 846 24.98 1.1 34.1 57 -6.5 20.3 0
19:45 1016 30 846 24.98 1 33.8 58 -6.4 20.5 0
19:46 1016 30 846 24.98 0.8 33.5 59 -6.3 20.7 0
19:47 1016 30 846 24.98 0.7 33.3 59 -6.3 20.7 0
19:48 1016 30 846 24.98 0.7 33.2 60 -6.3 20.6 0
19:49 1016 30 846 24.98 0.6 33 60 -6.4 20.5 0
19:50 1016 30 846 24.98 0.5 32.9 60 -6.5 20.4 0
19:51 1016 30 846 24.98 0.5 32.9 59 -6.5 20.2 0
19:52 1016 30 846 24.98 0.5 32.9 61 -6.1 21 0
19:53 1016 30 846 24.98 0.5 32.8 61 -6.2 20.9 0
19:54 1016 30 846 24.98 0.4 32.7 60 -6.4 20.4 0
19:55 1016 30 846 24.98 0.4 32.7 60 -6.5 20.3 0
19:56 1016 30 846 24.98 0.5 32.9 60 -6.4 20.5 0
19:57 1016 30 846 24.98 0.6 33.1 59 -6.6 20.2 0
19:58 1017 30.03 846 24.98 0.7 33.3 58 -6.5 20.3 0
19:59 1017 30.03 846 24.98 0.8 33.4 58 -6.6 20 0
20:00 1017 30.03 846 24.98 0.9 33.5 57 -6.7 20 0
20:01 1017 30.03 846 24.98 0.7 33.3 59 -6.4 20.6 0
20:02 1017 30.03 846 24.98 0.5 32.9 61 -6.2 20.8 0
20:03 1017 30.03 846 24.98 0.3 32.6 62 -6.2 20.9 0
20:04 1017 30.03 846 24.98 0.3 32.5 62 -6.1 21 0
20:05 1017 30.03 846 24.98 0.3 32.5 63 -5.9 21.4 0
20:06 1017 30.03 846 24.98 0.2 32.4 63 -6 21.3 0
20:07 1017 30.03 846 24.98 0.2 32.3 65 -5.7 21.8 0
20:08 1017 30.03 846 24.98 0.1 32.3 67 -5.3 22.4 0
20:09 1017 30.03 846 24.98 -0 32 68 -5.1 22.7 0
20:10 1017 30.03 846 24.98 -0.2 31.7 69 -5.2 22.6 0
20:11 1017 30.03 846 24.98 -0.3 31.4 67 -5.8 21.5 0
20:12 1017 30.03 846 24.98 -0.2 31.6 61 -6.9 19.7 0
20:13 1017 30.03 846 24.98 0.1 32.2 58 -7.1 19.3 0
20:14 1017 30.03 846 24.98 0.5 32.9 57 -6.9 19.5 0
20:15 1017 30.03 846 24.98 0.8 33.4 56 -7 19.5 0
20:16 1017 30.03 846 24.98 1 33.7 57 -6.6 20.1 0
20:17 1017 30.03 846 24.98 1 33.8 60 -5.9 21.3 0
20:18 1017 30.03 846 24.98 0.9 33.5 61 -5.9 21.4 0
20:19 1017 30.03 846 24.98 0.7 33.3 61 -6 21.1 0
20:20 1017 30.03 846 24.98 0.5 33 64 -5.5 22 0
20:21 1017 30.03 846 24.98 0.4 32.6 66 -5.2 22.7 0
20:22 1017 30.03 846 24.98 0.2 32.3 67 -5.2 22.7 0
20:23 1017 30.03 846 24.98 0 32 67 -5.4 22.3 0
20:24 1017 30.03 846 24.98 -0.2 31.6 69 -5.3 22.5 0
20:25 1017 30.03 846 24.98 -0.3 31.5 68 -5.5 22.2 0
20:26 1017 30.03 846 24.98 -0.2 31.6 66 -5.9 21.4 0
20:27 1017 30.03 846 24.98 -0.2 31.6 64 -6.1 21 0
20:28 1017 30.03 846 24.98 -0.2 31.6 64 -6.2 20.8 0
20:29 1017 30.03 846 24.98 -0.1 31.8 63 -6.3 20.6 0
20:30 1017 30.03 846 24.98 -0 32 61 -6.7 20 0
20:31 1017 30.03 846 24.98 0.2 32.4 60 -6.7 20 0
20:32 1017 30.03 846 24.98 0.4 32.6 60 -6.5 20.3 0
20:33 1017 30.03 846 24.98 0.5 32.8 58 -6.9 19.7 0
20:34 1017 30.03 846 24.98 0.5 33 61 -6.2 20.9 0
20:35 1017 30.03 846 24.98 0.3 32.6 61 -6.4 20.5 0
20:36 1017 30.03 846 24.98 0.3 32.6 59 -6.7 19.9 0
20:37 1017 30.03 846 24.98 0.4 32.7 60 -6.4 20.4 0
20:38 1017 30.03 846 24.98 0.3 32.6 61 -6.3 20.7 0
20:39 1017 30.03 846 24.98 0.1 32.2 62 -6.2 20.8 0
20:40 1017 30.03 846 24.98 -0 31.9 65 -5.9 21.3 0
20:41 1017 30.03 846 24.98 -0.3 31.5 67 -5.6 21.9 0
20:42 1017 30.03 846 24.98 -0.6 30.9 70 -5.4 22.2 0
20:43 1017 30.03 846 24.98 -0.8 30.5 75 -4.8 23.4 0
20:44 1017 30.03 846 24.98 -1 30.3 77 -4.5 23.8 0
20:45 1017 30.03 846 24.98 -1 30.2 77 -4.5 23.9 0
20:46 1017 30.03 846 24.98 -0.9 30.4 74 -4.9 23.2 0
20:47 1017 30.03 846 24.98 -0.6 30.8 73 -5 23 0
20:48 1017 30.03 846 24.98 -0.4 31.2 73 -4.6 23.6 0
20:49 1017 30.03 846 24.98 -0.3 31.4 72 -4.8 23.4 0
20:50 1017 30.03 846 24.98 -0.3 31.5 72 -4.8 23.3 0
20:51 1017 30.03 846 24.98 -0.2 31.6 70 -5.1 22.9 0
20:52 1017 30.03 846 24.98 -0.2 31.7 70 -5 22.9 0
20:53 1017 30.03 846 24.98 -0.2 31.7 70 -5 23.1 0
20:54 1017 30.03 846 24.98 -0.2 31.6 71 -4.9 23.1 0
20:55 1017 30.03 846 24.98 -0.2 31.6 70 -5.1 22.8 0
20:56 1017 30.03 846 24.98 -0.2 31.6 71 -4.9 23.2 0
20:57 1017 30.03 846 24.98 -0.2 31.6 70 -5.1 22.9 0
20:58 1017 30.03 846 24.98 -0.2 31.6 70 -5 23.1 0
20:59 1017 30.03 846 24.98 -0.2 31.6 69 -5.3 22.5 0
21:00 1017 30.03 846 24.98 -0.2 31.7 68 -5.4 22.3 0
21:01 1017 30.03 846 24.98 -0.1 31.8 68 -5.3 22.5 0
21:02 1017 30.03 846 24.98 -0.1 31.9 68 -5.3 22.5 0
21:03 1017 30.03 846 24.98 -0.1 31.8 67 -5.4 22.2 0
21:04 1017 30.03 846 24.98 -0.1 31.9 64 -6 21.1 0
21:05 1017 30.03 846 24.98 0 32 63 -6.3 20.7 0
21:06 1017 30.03 846 24.98 0.1 32.2 63 -6.2 20.9 0
21:07 1017 30.03 846 24.98 0.2 32.4 59 -6.9 19.6 0
21:08 1017 30.03 846 24.98 0.3 32.6 60 -6.6 20.1 0
21:09 1017 30.03 846 24.98 0.3 32.6 59 -6.7 20 0
21:10 1017 30.03 846 24.98 0.4 32.8 59 -6.6 20.1 0
21:11 1017 30.03 846 24.98 0.4 32.8 59 -6.7 19.9 0
21:12 1017 30.03 846 24.98 0.4 32.8 59 -6.6 20.2 0
21:13 1017 30.03 846 24.98 0.4 32.7 60 -6.4 20.5 0
21:14 1017 30.03 846 24.98 0.3 32.6 60 -6.5 20.3 0
21:15 1017 30.03 846 24.98 0.3 32.5 61 -6.4 20.5 0
21:16 1017 30.03 846 24.98 0.3 32.5 62 -6.1 20.9 0
21:17 1017 30.03 846 24.98 0.2 32.3 63 -6.1 20.9 0
21:18 1017 30.03 846 24.98 0.1 32.2 62 -6.3 20.7 0
21:19 1017 30.03 846 24.98 0.1 32.2 61 -6.6 20.1 0
21:20 1017 30.03 846 24.98 0 32.1 63 -6.2 20.9 0
21:21 1017 30.03 846 24.98 -0 32 60 -6.8 19.8 0
21:22 1017 30.03 846 24.98 0 32.1 59 -7.1 19.3 0
21:23 1017 30.03 846 24.98 0.1 32.3 58 -7.2 19 0
21:24 1017 30.03 846 24.98 0.3 32.5 57 -7.4 18.7 0
21:25 1017 30.03 846 24.98 0.3 32.5 56 -7.5 18.5 0
21:26 1017 30.03 846 24.98 0.3 32.6 54 -7.9 17.8 0
21:27 1017 30.03 846 24.98 0.4 32.8 54 -7.8 18 0
21:28 1017 30.03 846 24.98 0.6 33.1 55 -7.5 18.6 0
21:29 1017 30.03 846 24.98 0.7 33.2 55 -7.3 18.9 0
21:30 1017 30.03 846 24.98 0.7 33.2 57 -6.9 19.6 0
21:31 1017 30.03 846 24.98 0.7 33.2 56 -7 19.4 0
21:32 1017 30.03 846 24.98 0.7 33.2 58 -6.7 20 0
21:33 1017 30.03 846 24.98 0.6 33.1 58 -6.6 20.1 0
21:34 1017 30.03 846 24.98 0.6 33 59 -6.6 20.2 0
21:35 1017 30.03 846 24.98 0.5 33 59 -6.5 20.2 0
21:36 1017 30.03 846 24.98 0.5 33 59 -6.6 20.2 0
21:37 1017 30.03 846 24.98 0.5 32.9 60 -6.5 20.4 0
21:38 1017 30.03 846 24.98 0.4 32.7 60 -6.5 20.4 0
21:39 1017 30.03 846 24.98 0.4 32.7 61 -6.4 20.5 0
21:40 1017 30.03 846 24.98 0.4 32.6 61 -6.4 20.5 0
21:41 1017 30.03 846 24.98 0.3 32.5 61 -6.4 20.6 0
21:42 1017 30.03 846 24.98 0.3 32.5 62 -6.3 20.7 0
21:43 1017 30.03 846 24.98 0.2 32.3 62 -6.3 20.6 0
21:44 1017 30.03 846 24.98 0.1 32.3 62 -6.2 20.8 0
21:45 1017 30.03 846 24.98 0.1 32.2 62 -6.4 20.5 0
21:46 1017 30.03 846 24.98 0.1 32.2 62 -6.3 20.7 0
21:47 1017 30.03 846 24.98 0.1 32.1 62 -6.3 20.7 0
21:48 1017 30.03 846 24.98 0 32.1 62 -6.5 20.4 0
21:49 1017 30.03 846 24.98 0.1 32.1 61 -6.5 20.3 0
21:50 1017 30.03 846 24.98 0.1 32.2 61 -6.6 20.1 0
21:51 1017 30.03 846 24.98 0.1 32.2 62 -6.4 20.5 0
21:52 1017 30.03 846 24.98 0.1 32.1 62 -6.4 20.5 0
21:53 1017 30.03 846 24.98 0 32.1 62 -6.4 20.5 0
21:54 1017 30.03 846 24.98 -0.1 31.9 63 -6.3 20.6 0
21:55 1017 30.03 846 24.98 -0 31.9 61 -6.7 20 0
21:56 1017 30.03 846 24.98 0 32 63 -6.3 20.7 0
21:57 1017 30.03 846 24.98 -0.1 31.9 62 -6.4 20.5 0
21:58 1017 30.03 846 24.98 -0.1 31.8 64 -6.2 20.8 0
21:59 1017 30.03 846 24.98 -0.2 31.7 63 -6.4 20.5 0
22:00 1017 30.03 846 24.98 -0.2 31.7 62 -6.5 20.3 0
22:01 1017 30.03 846 24.98 -0.1 31.7 63 -6.3 20.6 0
22:02 1017 30.03 846 24.98 -0.2 31.7 63 -6.4 20.5 0
22:03 1017 30.03 846 24.98 -0.2 31.7 63 -6.4 20.5 0
22:04 1017 30.03 846 24.98 -0.2 31.7 64 -6.1 21 0
22:05 1017 30.03 846 24.98 -0.2 31.7 64 -6.2 20.9 0
22:06 1017 30.03 846 24.98 -0.2 31.6 64 -6.2 20.9 0
22:07 1017 30.03 846 24.98 -0.3 31.5 65 -6 21.1 0
22:08 1017 30.03 846 24.98 -0.3 31.5 65 -6.1 21.1 0
22:09 1017 30.03 846 24.98 -0.3 31.4 64 -6.2 20.8 0
22:10 1017 30.03 846 24.98 -0.3 31.5 66 -6 21.3 0
22:11 1017 30.03 847 25.01 -0.3 31.4 65 -6 21.2 0
22:12 1017 30.03 847 25.01 -0.3 31.5 65 -6 21.2 0
22:13 1017 30.03 847 25.01 -0.3 31.5 65 -6 21.2 0
22:14 1017 30.03 847 25.01 -0.3 31.5 65 -6 21.2 0
22:15 1017 30.03 847 25.01 -0.3 31.4 65 -6.1 21 0
22:16 1017 30.03 847 25.01 -0.3 31.5 64 -6.3 20.7 0
22:17 1017 30.03 847 25.01 -0.2 31.6 65 -6 21.2 0
22:18 1017 30.03 847 25.01 -0.3 31.5 65 -6 21.2 0
22:19 1017 30.03 847 25.01 -0.3 31.5 65 -6 21.2 0
22:20 1017 30.03 847 25.01 -0.3 31.5 65 -6.1 21 0
22:21 1017 30.03 847 25.01 -0.3 31.5 65 -6.1 21 0
22:22 1017 30.03 846 24.98 -0.3 31.5 65 -6.1 21.1 0
22:23 1017 30.03 846 24.98 -0.3 31.5 66 -6 21.3 0
22:24 1017 30.03 846 24.98 -0.3 31.4 66 -5.9 21.3 0
22:25 1017 30.03 847 25.01 -0.3 31.4 66 -6 21.2 0
22:26 1017 30.03 846 24.98 -0.3 31.4 66 -6 21.3 0
22:27 1017 30.03 846 24.98 -0.3 31.4 66 -6 21.3 0
22:28 1017 30.03 846 24.98 -0.4 31.3 66 -6 21.3 0
22:29 1017 30.03 846 24.98 -0.4 31.3 66 -5.9 21.3 0
22:30 1017 30.03 847 25.01 -0.4 31.3 66 -6 21.3 0
22:31 1017 30.03 847 25.01 -0.4 31.4 66 -5.9 21.3 0
22:32 1017 30.03 847 25.01 -0.3 31.4 66 -5.9 21.3 0
22:33 1017 30.03 847 25.01 -0.4 31.3 67 -5.8 21.6 0
22:34 1017 30.03 847 25.01 -0.4 31.2 67 -5.9 21.4 0
22:35 1017 30.03 847 25.01 -0.4 31.2 67 -5.9 21.4 0
22:36 1017 30.03 847 25.01 -0.4 31.2 67 -5.9 21.5 0
22:37 1017 30.03 847 25.01 -0.4 31.2 67 -5.8 21.6 0
22:38 1017 30.03 847 25.01 -0.4 31.3 67 -5.8 21.6 0
22:39 1017 30.03 847 25.01 -0.4 31.3 67 -5.7 21.8 0
22:40 1017 30.03 847 25.01 -0.4 31.3 67 -5.7 21.7 0
22:41 1018 30.06 847 25.01 -0.4 31.4 67 -5.8 21.6 0
22:42 1018 30.06 847 25.01 -0.4 31.3 68 -5.7 21.8 0
22:43 1018 30.06 847 25.01 -0.4 31.3 67 -5.8 21.6 0
22:44 1018 30.06 847 25.01 -0.4 31.4 68 -5.5 22 0
22:45 1017 30.03 847 25.01 -0.4 31.3 68 -5.5 22.1 0
22:46 1018 30.06 847 25.01 -0.4 31.3 68 -5.5 22.1 0
22:47 1017 30.03 847 25.01 -0.3 31.4 68 -5.5 22.1 0
22:48 1017 30.03 847 25.01 -0.3 31.4 67 -5.7 21.7 0
22:49 1018 30.06 847 25.01 -0.3 31.6 66 -5.8 21.6 0
22:50 1018 30.06 847 25.01 -0.2 31.6 68 -5.4 22.2 0
22:51 1017 30.03 847 25.01 -0.2 31.6 68 -5.4 22.3 0
22:52 1018 30.06 847 25.01 -0.3 31.4 69 -5.3 22.4 0
22:53 1018 30.06 847 25.01 -0.3 31.4 69 -5.4 22.3 0
22:54 1018 30.06 847 25.01 -0.3 31.5 68 -5.4 22.2 0
22:55 1018 30.06 847 25.01 -0.2 31.6 68 -5.4 22.2 0
22:56 1018 30.06 847 25.01 -0.2 31.6 68 -5.4 22.3 0
22:57 1018 30.06 847 25.01 -0.2 31.6 69 -5.3 22.5 0
22:58 1018 30.06 847 25.01 -0.2 31.6 68 -5.5 22.2 0
22:59 1018 30.06 847 25.01 -0.2 31.6 68 -5.4 22.3 0
23:00 1018 30.06 847 25.01 -0.2 31.6 68 -5.4 22.4 0
23:01 1018 30.06 847 25.01 -0.2 31.6 68 -5.5 22.1 0
23:02 1018 30.06 847 25.01 -0.2 31.7 69 -5.3 22.5 0
23:03 1018 30.06 847 25.01 -0.2 31.6 68 -5.4 22.2 0
23:04 1018 30.06 847 25.01 -0.2 31.6 68 -5.4 22.2 0
23:05 1018 30.06 847 25.01 -0.2 31.7 68 -5.4 22.3 0
23:06 1018 30.06 847 25.01 -0.2 31.7 68 -5.5 22.1 0
23:07 1018 30.06 847 25.01 -0.2 31.7 69 -5.2 22.6 0
23:08 1018 30.06 847 25.01 -0.2 31.7 68 -5.4 22.3 0
23:09 1018 30.06 847 25.01 -0.2 31.7 69 -5.3 22.5 0
23:10 1018 30.06 847 25.01 -0.2 31.6 69 -5.1 22.8 0
23:11 1018 30.06 847 25.01 -0.2 31.6 68 -5.4 22.3 0
23:12 1018 30.06 847 25.01 -0.2 31.7 69 -5.3 22.5 0
23:13 1018 30.06 847 25.01 -0.2 31.7 68 -5.4 22.3 0
23:14 1018 30.06 847 25.01 -0.2 31.6 68 -5.4 22.3 0
23:15 1018 30.06 847 25.01 -0.2 31.7 68 -5.3 22.4 0
23:16 1018 30.06 847 25.01 -0.2 31.7 68 -5.3 22.4 0
23:17 1018 30.06 847 25.01 -0.2 31.7 67 -5.5 22.1 0
23:18 1018 30.06 847 25.01 -0.2 31.7 68 -5.4 22.3 0
23:19 1018 30.06 847 25.01 -0.2 31.7 68 -5.3 22.4 0
23:20 1018 30.06 847 25.01 -0.2 31.7 68 -5.3 22.5 0
23:21 1018 30.06 847 25.01 -0.2 31.6 68 -5.4 22.3 0
23:22 1018 30.06 847 25.01 -0.2 31.6 69 -5.3 22.4 0
23:23 1018 30.06 847 25.01 -0.2 31.6 68 -5.4 22.3 0
23:24 1018 30.06 847 25.01 -0.2 31.6 69 -5.3 22.5 0
23:25 1018 30.06 847 25.01 -0.3 31.5 69 -5.3 22.5 0
23:26 1018 30.06 847 25.01 -0.3 31.5 70 -5.1 22.7 0
23:27 1018 30.06 847 25.01 -0.3 31.4 70 -5.1 22.8 0
23:28 1018 30.06 847 25.01 -0.4 31.3 70 -5.2 22.6 0
23:29 1018 30.06 847 25.01 -0.4 31.3 71 -5.1 22.9 0
23:30 1018 30.06 847 25.01 -0.4 31.2 71 -5.1 22.8 0
23:31 1018 30.06 847 25.01 -0.4 31.2 72 -4.9 23.1 0
23:32 1018 30.06 847 25.01 -0.4 31.2 72 -4.9 23.2 0
23:33 1018 30.06 847 25.01 -0.5 31.2 72 -4.9 23.2 0
23:34 1018 30.06 847 25.01 -0.5 31.1 72 -4.9 23.1 0
23:35 1018 30.06 847 25.01 -0.5 31.1 73 -4.9 23.3 0
23:36 1018 30.06 847 25.01 -0.6 31 73 -4.9 23.2 0
23:37 1018 30.06 847 25.01 -0.6 31 73 -4.8 23.3 0
23:38 1018 30.06 847 25.01 -0.6 30.9 73 -4.8 23.3 0
23:39 1018 30.06 847 25.01 -0.6 30.9 74 -4.7 23.5 0
23:40 1018 30.06 847 25.01 -0.6 30.9 74 -4.7 23.5 0
23:41 1018 30.06 847 25.01 -0.7 30.8 75 -4.6 23.8 0
23:42 1018 30.06 847 25.01 -0.7 30.7 76 -4.4 24 0
23:43 1018 30.06 847 25.01 -0.8 30.6 77 -4.3 24.3 0
23:44 1018 30.06 847 25.01 -0.9 30.4 78 -4.2 24.4 0
23:45 1018 30.06 847 25.01 -1 30.3 79 -4.1 24.6 0
23:46 1018 30.06 847 25.01 -1 30.1 80 -4.1 24.6 0
23:47 1018 30.06 847 25.01 -1.1 30 81 -4 24.8 0
23:48 1018 30.06 847 25.01 -1.2 29.9 82 -3.9 24.9 0
23:49 1018 30.06 847 25.01 -1.3 29.7 82 -3.9 25 0
23:50 1018 30.06 847 25.01 -1.3 29.6 83 -3.9 25 0
23:51 1018 30.06 847 25.01 -1.4 29.5 82 -4 24.8 0
23:52 1018 30.06 847 25.01 -1.4 29.5 82 -4 24.7 0
23:53 1018 30.06 847 25.01 -1.4 29.5 83 -4 24.8 0
23:54 1018 30.06 847 25.01 -1.4 29.5 83 -3.9 24.9 0
23:55 1018 30.06 847 25.01 -1.4 29.4 83 -3.9 25 0
23:56 1018 30.06 847 25.01 -1.5 29.3 84 -3.9 25 0
23:57 1018 30.06 847 25.01 -1.5 29.3 84 -3.9 24.9 0
23:58 1018 30.06 847 25.01 -1.5 29.2 84 -3.9 24.9 0
23:59 1018 30.06 847 25.01 -1.6 29.2 84 -3.9 24.9 0
24:00 1018 30.06 847 25.01 -1.6 29.1 84 -4 24.9 0